<?xml version="1.0" encoding="UTF-8" standalone="no" ?>
<gpx xmlns="http://www.topografix.com/GPX/1/1" creator="https://MapMagic.app" xmlns:xsi="http://www.w3.org/2001/XMLSchema-instance" xsi:schemaLocation="http://www.topografix.com/GPX/1/1 http://www.topografix.com/GPX/1/1/gpx.xsd" version="1.1">
	<wpt lat="54.386535" lon="20.640329">
		<name>KП 1</name>
		<desc>Время работы 09:00 - 11:32</desc>
		<type>Generic</type>
	</wpt>
	<wpt lat="54.618983" lon="21.228548">
		<name>KП 2</name>
		<desc>Время работы 10:35 - 15:48</desc>
		<type>Generic</type>
	</wpt>
	<trk>
		<name>200_Натангия_Прегель_2026</name>
		<desc>200_Натангия_Прегель_2026</desc>
		<trkseg>
			<trkpt lat="54.684920" lon="20.458230"><ele>2.4</ele><time>2026-08-04T11:23:01Z</time></trkpt>
			<trkpt lat="54.684760" lon="20.458250"><ele>3.0</ele><time>2026-08-04T11:23:02Z</time></trkpt>
			<trkpt lat="54.683430" lon="20.456430"><ele>10.0</ele><time>2026-08-04T11:23:03Z</time></trkpt>
			<trkpt lat="54.677130" lon="20.443950"><ele>8.9</ele><time>2026-08-04T11:23:04Z</time></trkpt>
			<trkpt lat="54.669170" lon="20.429250"><ele>5.5</ele><time>2026-08-04T11:23:05Z</time></trkpt>
			<trkpt lat="54.666650" lon="20.421330"><ele>2.3</ele><time>2026-08-04T11:23:06Z</time></trkpt>
			<trkpt lat="54.650590" lon="20.369930"><ele>-1.1</ele><time>2026-08-04T11:23:07Z</time></trkpt>
			<trkpt lat="54.650320" lon="20.369150"><ele>-1.1</ele><time>2026-08-04T11:23:08Z</time></trkpt>
			<trkpt lat="54.650160" lon="20.368780"><ele>-1.0</ele><time>2026-08-04T11:23:09Z</time></trkpt>
			<trkpt lat="54.645790" lon="20.354840"><ele>2.4</ele><time>2026-08-04T11:23:10Z</time></trkpt>
			<trkpt lat="54.644450" lon="20.350450"><ele>2.1</ele><time>2026-08-04T11:23:11Z</time></trkpt>
			<trkpt lat="54.644090" lon="20.349420"><ele>3.3</ele><time>2026-08-04T11:23:12Z</time></trkpt>
			<trkpt lat="54.642770" lon="20.344940"><ele>1.9</ele><time>2026-08-04T11:23:13Z</time></trkpt>
			<trkpt lat="54.640400" lon="20.337380"><ele>3.1</ele><time>2026-08-04T11:23:14Z</time></trkpt>
			<trkpt lat="54.640120" lon="20.337590"><ele>3.5</ele><time>2026-08-04T11:23:15Z</time></trkpt>
			<trkpt lat="54.640400" lon="20.337380"><ele>3.9</ele><time>2026-08-04T11:23:16Z</time></trkpt>
			<trkpt lat="54.635410" lon="20.321550"><ele>-1.1</ele><time>2026-08-04T11:23:17Z</time></trkpt>
			<trkpt lat="54.633820" lon="20.316410"><ele>-0.0</ele><time>2026-08-04T11:23:18Z</time></trkpt>
			<trkpt lat="54.630450" lon="20.305810"><ele>7.8</ele><time>2026-08-04T11:23:19Z</time></trkpt>
			<trkpt lat="54.625300" lon="20.289310"><ele>15.8</ele><time>2026-08-04T11:23:20Z</time></trkpt>
			<trkpt lat="54.624490" lon="20.286830"><ele>17.2</ele><time>2026-08-04T11:23:21Z</time></trkpt>
			<trkpt lat="54.621160" lon="20.276080"><ele>18.5</ele><time>2026-08-04T11:23:22Z</time></trkpt>
			<trkpt lat="54.615840" lon="20.259320"><ele>16.1</ele><time>2026-08-04T11:23:23Z</time></trkpt>
			<trkpt lat="54.614110" lon="20.253750"><ele>8.9</ele><time>2026-08-04T11:23:24Z</time></trkpt>
			<trkpt lat="54.613910" lon="20.252920"><ele>9.3</ele><time>2026-08-04T11:23:25Z</time></trkpt>
			<trkpt lat="54.613510" lon="20.250600"><ele>10.2</ele><time>2026-08-04T11:23:26Z</time></trkpt>
			<trkpt lat="54.613420" lon="20.250280"><ele>9.9</ele><time>2026-08-04T11:23:27Z</time></trkpt>
			<trkpt lat="54.613010" lon="20.249220"><ele>8.8</ele><time>2026-08-04T11:23:28Z</time></trkpt>
			<trkpt lat="54.610930" lon="20.241160"><ele>3.5</ele><time>2026-08-04T11:23:29Z</time></trkpt>
			<trkpt lat="54.610700" lon="20.240360"><ele>5.9</ele><time>2026-08-04T11:23:30Z</time></trkpt>
			<trkpt lat="54.609290" lon="20.236530"><ele>11.3</ele><time>2026-08-04T11:23:31Z</time></trkpt>
			<trkpt lat="54.609000" lon="20.235820"><ele>11.6</ele><time>2026-08-04T11:23:32Z</time></trkpt>
			<trkpt lat="54.606440" lon="20.228990"><ele>17.3</ele><time>2026-08-04T11:23:33Z</time></trkpt>
			<trkpt lat="54.600280" lon="20.209090"><ele>34.0</ele><time>2026-08-04T11:23:34Z</time></trkpt>
			<trkpt lat="54.599740" lon="20.207950"><ele>34.8</ele><time>2026-08-04T11:23:35Z</time></trkpt>
			<trkpt lat="54.599270" lon="20.207270"><ele>35.4</ele><time>2026-08-04T11:23:36Z</time></trkpt>
			<trkpt lat="54.583550" lon="20.188190"><ele>34.9</ele><time>2026-08-04T11:23:37Z</time></trkpt>
			<trkpt lat="54.580660" lon="20.184800"><ele>28.3</ele><time>2026-08-04T11:23:38Z</time></trkpt>
			<trkpt lat="54.577160" lon="20.180460"><ele>22.9</ele><time>2026-08-04T11:23:39Z</time></trkpt>
			<trkpt lat="54.575680" lon="20.178720"><ele>14.4</ele><time>2026-08-04T11:23:40Z</time></trkpt>
			<trkpt lat="54.574470" lon="20.177240"><ele>14.6</ele><time>2026-08-04T11:23:41Z</time></trkpt>
			<trkpt lat="54.573930" lon="20.176640"><ele>15.2</ele><time>2026-08-04T11:23:42Z</time></trkpt>
			<trkpt lat="54.573770" lon="20.176530"><ele>15.5</ele><time>2026-08-04T11:23:43Z</time></trkpt>
			<trkpt lat="54.571620" lon="20.176030"><ele>19.2</ele><time>2026-08-04T11:23:44Z</time></trkpt>
			<trkpt lat="54.571440" lon="20.175940"><ele>19.5</ele><time>2026-08-04T11:23:45Z</time></trkpt>
			<trkpt lat="54.571000" lon="20.175620"><ele>20.4</ele><time>2026-08-04T11:23:46Z</time></trkpt>
			<trkpt lat="54.570750" lon="20.175350"><ele>20.9</ele><time>2026-08-04T11:23:47Z</time></trkpt>
			<trkpt lat="54.570640" lon="20.175130"><ele>20.9</ele><time>2026-08-04T11:23:48Z</time></trkpt>
			<trkpt lat="54.570430" lon="20.174280"><ele>20.6</ele><time>2026-08-04T11:23:49Z</time></trkpt>
			<trkpt lat="54.570320" lon="20.174020"><ele>20.4</ele><time>2026-08-04T11:23:50Z</time></trkpt>
			<trkpt lat="54.569450" lon="20.173010"><ele>20.1</ele><time>2026-08-04T11:23:51Z</time></trkpt>
			<trkpt lat="54.568710" lon="20.173570"><ele>22.1</ele><time>2026-08-04T11:23:52Z</time></trkpt>
			<trkpt lat="54.565700" lon="20.176310"><ele>27.4</ele><time>2026-08-04T11:23:53Z</time></trkpt>
			<trkpt lat="54.560170" lon="20.181490"><ele>23.8</ele><time>2026-08-04T11:23:54Z</time></trkpt>
			<trkpt lat="54.560000" lon="20.181730"><ele>22.9</ele><time>2026-08-04T11:23:55Z</time></trkpt>
			<trkpt lat="54.559850" lon="20.182120"><ele>23.3</ele><time>2026-08-04T11:23:56Z</time></trkpt>
			<trkpt lat="54.559790" lon="20.182600"><ele>23.7</ele><time>2026-08-04T11:23:57Z</time></trkpt>
			<trkpt lat="54.559730" lon="20.183940"><ele>25.0</ele><time>2026-08-04T11:23:58Z</time></trkpt>
			<trkpt lat="54.559600" lon="20.184550"><ele>25.6</ele><time>2026-08-04T11:23:59Z</time></trkpt>
			<trkpt lat="54.559460" lon="20.184950"><ele>26.0</ele><time>2026-08-04T11:24:00Z</time></trkpt>
			<trkpt lat="54.559340" lon="20.185150"><ele>26.2</ele><time>2026-08-04T11:24:01Z</time></trkpt>
			<trkpt lat="54.544710" lon="20.200970"><ele>41.0</ele><time>2026-08-04T11:24:02Z</time></trkpt>
			<trkpt lat="54.538600" lon="20.207490"><ele>41.1</ele><time>2026-08-04T11:24:03Z</time></trkpt>
			<trkpt lat="54.530630" lon="20.216080"><ele>57.8</ele><time>2026-08-04T11:24:04Z</time></trkpt>
			<trkpt lat="54.530200" lon="20.216350"><ele>57.4</ele><time>2026-08-04T11:24:05Z</time></trkpt>
			<trkpt lat="54.521800" lon="20.220850"><ele>45.6</ele><time>2026-08-04T11:24:06Z</time></trkpt>
			<trkpt lat="54.520510" lon="20.222480"><ele>47.2</ele><time>2026-08-04T11:24:07Z</time></trkpt>
			<trkpt lat="54.519990" lon="20.222980"><ele>47.5</ele><time>2026-08-04T11:24:08Z</time></trkpt>
			<trkpt lat="54.513190" lon="20.227820"><ele>55.1</ele><time>2026-08-04T11:24:09Z</time></trkpt>
			<trkpt lat="54.512990" lon="20.228020"><ele>54.8</ele><time>2026-08-04T11:24:10Z</time></trkpt>
			<trkpt lat="54.512840" lon="20.228220"><ele>54.6</ele><time>2026-08-04T11:24:11Z</time></trkpt>
			<trkpt lat="54.512750" lon="20.228640"><ele>54.3</ele><time>2026-08-04T11:24:12Z</time></trkpt>
			<trkpt lat="54.512680" lon="20.230400"><ele>54.1</ele><time>2026-08-04T11:24:13Z</time></trkpt>
			<trkpt lat="54.512440" lon="20.230860"><ele>54.4</ele><time>2026-08-04T11:24:14Z</time></trkpt>
			<trkpt lat="54.512250" lon="20.231040"><ele>54.6</ele><time>2026-08-04T11:24:15Z</time></trkpt>
			<trkpt lat="54.512070" lon="20.231170"><ele>54.8</ele><time>2026-08-04T11:24:16Z</time></trkpt>
			<trkpt lat="54.511870" lon="20.231260"><ele>55.0</ele><time>2026-08-04T11:24:17Z</time></trkpt>
			<trkpt lat="54.511740" lon="20.231240"><ele>55.1</ele><time>2026-08-04T11:24:18Z</time></trkpt>
			<trkpt lat="54.511590" lon="20.231090"><ele>55.3</ele><time>2026-08-04T11:24:19Z</time></trkpt>
			<trkpt lat="54.510990" lon="20.230320"><ele>55.6</ele><time>2026-08-04T11:24:20Z</time></trkpt>
			<trkpt lat="54.510890" lon="20.230250"><ele>55.7</ele><time>2026-08-04T11:24:21Z</time></trkpt>
			<trkpt lat="54.510780" lon="20.230220"><ele>55.7</ele><time>2026-08-04T11:24:22Z</time></trkpt>
			<trkpt lat="54.510530" lon="20.230270"><ele>55.8</ele><time>2026-08-04T11:24:23Z</time></trkpt>
			<trkpt lat="54.510170" lon="20.230570"><ele>56.0</ele><time>2026-08-04T11:24:24Z</time></trkpt>
			<trkpt lat="54.509380" lon="20.231370"><ele>55.5</ele><time>2026-08-04T11:24:25Z</time></trkpt>
			<trkpt lat="54.508730" lon="20.231930"><ele>54.8</ele><time>2026-08-04T11:24:26Z</time></trkpt>
			<trkpt lat="54.507140" lon="20.233680"><ele>50.1</ele><time>2026-08-04T11:24:27Z</time></trkpt>
			<trkpt lat="54.506240" lon="20.234760"><ele>50.7</ele><time>2026-08-04T11:24:28Z</time></trkpt>
			<trkpt lat="54.505370" lon="20.235420"><ele>52.8</ele><time>2026-08-04T11:24:29Z</time></trkpt>
			<trkpt lat="54.505040" lon="20.235720"><ele>53.6</ele><time>2026-08-04T11:24:30Z</time></trkpt>
			<trkpt lat="54.504800" lon="20.236030"><ele>54.2</ele><time>2026-08-04T11:24:31Z</time></trkpt>
			<trkpt lat="54.501470" lon="20.241990"><ele>58.0</ele><time>2026-08-04T11:24:32Z</time></trkpt>
			<trkpt lat="54.499050" lon="20.245480"><ele>58.4</ele><time>2026-08-04T11:24:33Z</time></trkpt>
			<trkpt lat="54.497280" lon="20.247310"><ele>61.4</ele><time>2026-08-04T11:24:34Z</time></trkpt>
			<trkpt lat="54.491830" lon="20.250830"><ele>62.1</ele><time>2026-08-04T11:24:35Z</time></trkpt>
			<trkpt lat="54.490450" lon="20.251670"><ele>64.0</ele><time>2026-08-04T11:24:36Z</time></trkpt>
			<trkpt lat="54.484820" lon="20.254930"><ele>73.8</ele><time>2026-08-04T11:24:37Z</time></trkpt>
			<trkpt lat="54.483690" lon="20.255700"><ele>76.9</ele><time>2026-08-04T11:24:38Z</time></trkpt>
			<trkpt lat="54.475170" lon="20.262880"><ele>83.3</ele><time>2026-08-04T11:24:39Z</time></trkpt>
			<trkpt lat="54.471160" lon="20.266360"><ele>82.6</ele><time>2026-08-04T11:24:40Z</time></trkpt>
			<trkpt lat="54.470760" lon="20.266670"><ele>82.7</ele><time>2026-08-04T11:24:41Z</time></trkpt>
			<trkpt lat="54.470420" lon="20.266990"><ele>82.8</ele><time>2026-08-04T11:24:42Z</time></trkpt>
			<trkpt lat="54.469870" lon="20.267430"><ele>84.5</ele><time>2026-08-04T11:24:43Z</time></trkpt>
			<trkpt lat="54.466610" lon="20.270240"><ele>89.1</ele><time>2026-08-04T11:24:44Z</time></trkpt>
			<trkpt lat="54.465130" lon="20.271450"><ele>89.3</ele><time>2026-08-04T11:24:45Z</time></trkpt>
			<trkpt lat="54.464450" lon="20.272080"><ele>90.6</ele><time>2026-08-04T11:24:46Z</time></trkpt>
			<trkpt lat="54.461140" lon="20.274870"><ele>94.2</ele><time>2026-08-04T11:24:47Z</time></trkpt>
			<trkpt lat="54.456430" lon="20.278950"><ele>110.4</ele><time>2026-08-04T11:24:48Z</time></trkpt>
			<trkpt lat="54.455800" lon="20.279400"><ele>112.6</ele><time>2026-08-04T11:24:49Z</time></trkpt>
			<trkpt lat="54.453650" lon="20.280700"><ele>105.9</ele><time>2026-08-04T11:24:50Z</time></trkpt>
			<trkpt lat="54.451410" lon="20.282110"><ele>100.2</ele><time>2026-08-04T11:24:51Z</time></trkpt>
			<trkpt lat="54.449320" lon="20.283910"><ele>97.2</ele><time>2026-08-04T11:24:52Z</time></trkpt>
			<trkpt lat="54.449230" lon="20.283960"><ele>97.1</ele><time>2026-08-04T11:24:53Z</time></trkpt>
			<trkpt lat="54.448990" lon="20.284200"><ele>96.3</ele><time>2026-08-04T11:24:54Z</time></trkpt>
			<trkpt lat="54.448850" lon="20.284410"><ele>95.7</ele><time>2026-08-04T11:24:55Z</time></trkpt>
			<trkpt lat="54.448740" lon="20.284700"><ele>95.1</ele><time>2026-08-04T11:24:56Z</time></trkpt>
			<trkpt lat="54.448720" lon="20.285120"><ele>94.3</ele><time>2026-08-04T11:24:57Z</time></trkpt>
			<trkpt lat="54.448940" lon="20.286430"><ele>91.7</ele><time>2026-08-04T11:24:58Z</time></trkpt>
			<trkpt lat="54.448940" lon="20.286980"><ele>91.2</ele><time>2026-08-04T11:24:59Z</time></trkpt>
			<trkpt lat="54.448470" lon="20.288850"><ele>91.7</ele><time>2026-08-04T11:25:00Z</time></trkpt>
			<trkpt lat="54.448360" lon="20.289180"><ele>91.7</ele><time>2026-08-04T11:25:01Z</time></trkpt>
			<trkpt lat="54.448050" lon="20.292230"><ele>96.4</ele><time>2026-08-04T11:25:02Z</time></trkpt>
			<trkpt lat="54.447620" lon="20.292260"><ele>97.8</ele><time>2026-08-04T11:25:03Z</time></trkpt>
			<trkpt lat="54.447190" lon="20.292370"><ele>99.3</ele><time>2026-08-04T11:25:04Z</time></trkpt>
			<trkpt lat="54.446340" lon="20.293070"><ele>102.7</ele><time>2026-08-04T11:25:05Z</time></trkpt>
			<trkpt lat="54.445490" lon="20.293170"><ele>103.2</ele><time>2026-08-04T11:25:06Z</time></trkpt>
			<trkpt lat="54.445290" lon="20.293240"><ele>103.0</ele><time>2026-08-04T11:25:07Z</time></trkpt>
			<trkpt lat="54.445020" lon="20.293450"><ele>102.7</ele><time>2026-08-04T11:25:08Z</time></trkpt>
			<trkpt lat="54.443850" lon="20.295010"><ele>102.9</ele><time>2026-08-04T11:25:09Z</time></trkpt>
			<trkpt lat="54.441250" lon="20.298590"><ele>104.8</ele><time>2026-08-04T11:25:10Z</time></trkpt>
			<trkpt lat="54.440860" lon="20.299030"><ele>104.8</ele><time>2026-08-04T11:25:11Z</time></trkpt>
			<trkpt lat="54.440600" lon="20.299210"><ele>104.8</ele><time>2026-08-04T11:25:12Z</time></trkpt>
			<trkpt lat="54.439460" lon="20.300150"><ele>100.8</ele><time>2026-08-04T11:25:13Z</time></trkpt>
			<trkpt lat="54.439210" lon="20.300540"><ele>98.8</ele><time>2026-08-04T11:25:14Z</time></trkpt>
			<trkpt lat="54.438360" lon="20.303060"><ele>98.1</ele><time>2026-08-04T11:25:15Z</time></trkpt>
			<trkpt lat="54.438150" lon="20.303360"><ele>99.4</ele><time>2026-08-04T11:25:16Z</time></trkpt>
			<trkpt lat="54.438070" lon="20.303420"><ele>99.8</ele><time>2026-08-04T11:25:17Z</time></trkpt>
			<trkpt lat="54.437210" lon="20.303770"><ele>103.0</ele><time>2026-08-04T11:25:18Z</time></trkpt>
			<trkpt lat="54.436900" lon="20.303830"><ele>103.5</ele><time>2026-08-04T11:25:19Z</time></trkpt>
			<trkpt lat="54.436650" lon="20.303860"><ele>103.9</ele><time>2026-08-04T11:25:20Z</time></trkpt>
			<trkpt lat="54.434390" lon="20.303830"><ele>106.1</ele><time>2026-08-04T11:25:21Z</time></trkpt>
			<trkpt lat="54.433630" lon="20.303870"><ele>108.7</ele><time>2026-08-04T11:25:22Z</time></trkpt>
			<trkpt lat="54.433360" lon="20.304000"><ele>111.0</ele><time>2026-08-04T11:25:23Z</time></trkpt>
			<trkpt lat="54.433040" lon="20.304320"><ele>114.1</ele><time>2026-08-04T11:25:24Z</time></trkpt>
			<trkpt lat="54.432930" lon="20.304500"><ele>115.4</ele><time>2026-08-04T11:25:25Z</time></trkpt>
			<trkpt lat="54.432840" lon="20.304870"><ele>117.4</ele><time>2026-08-04T11:25:26Z</time></trkpt>
			<trkpt lat="54.432600" lon="20.306540"><ele>121.7</ele><time>2026-08-04T11:25:27Z</time></trkpt>
			<trkpt lat="54.432330" lon="20.307390"><ele>122.1</ele><time>2026-08-04T11:25:28Z</time></trkpt>
			<trkpt lat="54.429130" lon="20.309930"><ele>121.6</ele><time>2026-08-04T11:25:29Z</time></trkpt>
			<trkpt lat="54.428750" lon="20.310140"><ele>122.1</ele><time>2026-08-04T11:25:30Z</time></trkpt>
			<trkpt lat="54.427080" lon="20.310830"><ele>120.4</ele><time>2026-08-04T11:25:31Z</time></trkpt>
			<trkpt lat="54.426570" lon="20.311140"><ele>119.5</ele><time>2026-08-04T11:25:32Z</time></trkpt>
			<trkpt lat="54.425890" lon="20.312010"><ele>119.1</ele><time>2026-08-04T11:25:33Z</time></trkpt>
			<trkpt lat="54.424450" lon="20.314010"><ele>121.7</ele><time>2026-08-04T11:25:34Z</time></trkpt>
			<trkpt lat="54.424260" lon="20.314220"><ele>122.5</ele><time>2026-08-04T11:25:35Z</time></trkpt>
			<trkpt lat="54.423770" lon="20.314620"><ele>124.2</ele><time>2026-08-04T11:25:36Z</time></trkpt>
			<trkpt lat="54.418850" lon="20.317570"><ele>114.8</ele><time>2026-08-04T11:25:37Z</time></trkpt>
			<trkpt lat="54.418470" lon="20.317840"><ele>114.8</ele><time>2026-08-04T11:25:38Z</time></trkpt>
			<trkpt lat="54.417600" lon="20.318580"><ele>114.3</ele><time>2026-08-04T11:25:39Z</time></trkpt>
			<trkpt lat="54.417060" lon="20.319090"><ele>113.9</ele><time>2026-08-04T11:25:40Z</time></trkpt>
			<trkpt lat="54.414300" lon="20.321530"><ele>109.8</ele><time>2026-08-04T11:25:41Z</time></trkpt>
			<trkpt lat="54.413920" lon="20.321930"><ele>108.9</ele><time>2026-08-04T11:25:42Z</time></trkpt>
			<trkpt lat="54.409930" lon="20.327190"><ele>122.4</ele><time>2026-08-04T11:25:43Z</time></trkpt>
			<trkpt lat="54.409080" lon="20.328270"><ele>122.9</ele><time>2026-08-04T11:25:44Z</time></trkpt>
			<trkpt lat="54.408780" lon="20.328470"><ele>122.6</ele><time>2026-08-04T11:25:45Z</time></trkpt>
			<trkpt lat="54.408490" lon="20.328570"><ele>122.2</ele><time>2026-08-04T11:25:46Z</time></trkpt>
			<trkpt lat="54.408360" lon="20.328570"><ele>122.1</ele><time>2026-08-04T11:25:47Z</time></trkpt>
			<trkpt lat="54.407650" lon="20.328400"><ele>121.4</ele><time>2026-08-04T11:25:48Z</time></trkpt>
			<trkpt lat="54.407390" lon="20.328420"><ele>121.3</ele><time>2026-08-04T11:25:49Z</time></trkpt>
			<trkpt lat="54.407010" lon="20.328530"><ele>121.1</ele><time>2026-08-04T11:25:50Z</time></trkpt>
			<trkpt lat="54.406700" lon="20.328760"><ele>121.0</ele><time>2026-08-04T11:25:51Z</time></trkpt>
			<trkpt lat="54.406500" lon="20.329000"><ele>120.9</ele><time>2026-08-04T11:25:52Z</time></trkpt>
			<trkpt lat="54.403410" lon="20.333900"><ele>123.4</ele><time>2026-08-04T11:25:53Z</time></trkpt>
			<trkpt lat="54.403090" lon="20.334470"><ele>124.0</ele><time>2026-08-04T11:25:54Z</time></trkpt>
			<trkpt lat="54.401230" lon="20.340460"><ele>133.3</ele><time>2026-08-04T11:25:55Z</time></trkpt>
			<trkpt lat="54.400790" lon="20.341980"><ele>133.9</ele><time>2026-08-04T11:25:56Z</time></trkpt>
			<trkpt lat="54.400220" lon="20.344890"><ele>132.8</ele><time>2026-08-04T11:25:57Z</time></trkpt>
			<trkpt lat="54.399210" lon="20.351060"><ele>125.5</ele><time>2026-08-04T11:25:58Z</time></trkpt>
			<trkpt lat="54.398680" lon="20.353470"><ele>123.7</ele><time>2026-08-04T11:25:59Z</time></trkpt>
			<trkpt lat="54.398230" lon="20.355000"><ele>125.6</ele><time>2026-08-04T11:26:00Z</time></trkpt>
			<trkpt lat="54.398180" lon="20.355380"><ele>126.2</ele><time>2026-08-04T11:26:01Z</time></trkpt>
			<trkpt lat="54.398140" lon="20.356720"><ele>128.0</ele><time>2026-08-04T11:26:02Z</time></trkpt>
			<trkpt lat="54.398000" lon="20.358120"><ele>128.7</ele><time>2026-08-04T11:26:03Z</time></trkpt>
			<trkpt lat="54.398090" lon="20.358700"><ele>129.0</ele><time>2026-08-04T11:26:04Z</time></trkpt>
			<trkpt lat="54.398250" lon="20.359160"><ele>129.3</ele><time>2026-08-04T11:26:05Z</time></trkpt>
			<trkpt lat="54.398450" lon="20.360030"><ele>129.3</ele><time>2026-08-04T11:26:06Z</time></trkpt>
			<trkpt lat="54.398650" lon="20.361220"><ele>128.7</ele><time>2026-08-04T11:26:07Z</time></trkpt>
			<trkpt lat="54.399070" lon="20.363150"><ele>128.1</ele><time>2026-08-04T11:26:08Z</time></trkpt>
			<trkpt lat="54.400470" lon="20.370120"><ele>142.7</ele><time>2026-08-04T11:26:09Z</time></trkpt>
			<trkpt lat="54.400690" lon="20.370830"><ele>144.3</ele><time>2026-08-04T11:26:10Z</time></trkpt>
			<trkpt lat="54.400880" lon="20.371230"><ele>145.1</ele><time>2026-08-04T11:26:11Z</time></trkpt>
			<trkpt lat="54.401160" lon="20.371700"><ele>143.4</ele><time>2026-08-04T11:26:12Z</time></trkpt>
			<trkpt lat="54.401320" lon="20.371860"><ele>142.6</ele><time>2026-08-04T11:26:13Z</time></trkpt>
			<trkpt lat="54.401590" lon="20.372040"><ele>141.3</ele><time>2026-08-04T11:26:14Z</time></trkpt>
			<trkpt lat="54.402170" lon="20.372310"><ele>138.6</ele><time>2026-08-04T11:26:15Z</time></trkpt>
			<trkpt lat="54.402440" lon="20.372600"><ele>137.2</ele><time>2026-08-04T11:26:16Z</time></trkpt>
			<trkpt lat="54.402530" lon="20.372760"><ele>137.3</ele><time>2026-08-04T11:26:17Z</time></trkpt>
			<trkpt lat="54.402530" lon="20.372760"><ele>137.3</ele><time>2026-08-04T11:26:18Z</time></trkpt>
			<trkpt lat="54.402700" lon="20.373490"><ele>137.6</ele><time>2026-08-04T11:26:19Z</time></trkpt>
			<trkpt lat="54.402700" lon="20.373490"><ele>137.6</ele><time>2026-08-04T11:26:20Z</time></trkpt>
			<trkpt lat="54.402740" lon="20.373680"><ele>137.6</ele><time>2026-08-04T11:26:21Z</time></trkpt>
			<trkpt lat="54.403020" lon="20.374690"><ele>138.0</ele><time>2026-08-04T11:26:22Z</time></trkpt>
			<trkpt lat="54.403060" lon="20.374740"><ele>138.1</ele><time>2026-08-04T11:26:23Z</time></trkpt>
			<trkpt lat="54.403060" lon="20.374740"><ele>138.1</ele><time>2026-08-04T11:26:24Z</time></trkpt>
			<trkpt lat="54.403350" lon="20.375160"><ele>138.3</ele><time>2026-08-04T11:26:25Z</time></trkpt>
			<trkpt lat="54.403910" lon="20.375430"><ele>135.6</ele><time>2026-08-04T11:26:26Z</time></trkpt>
			<trkpt lat="54.404060" lon="20.375680"><ele>134.7</ele><time>2026-08-04T11:26:27Z</time></trkpt>
			<trkpt lat="54.404060" lon="20.375680"><ele>134.7</ele><time>2026-08-04T11:26:28Z</time></trkpt>
			<trkpt lat="54.405320" lon="20.377740"><ele>130.2</ele><time>2026-08-04T11:26:29Z</time></trkpt>
			<trkpt lat="54.405320" lon="20.377740"><ele>130.2</ele><time>2026-08-04T11:26:30Z</time></trkpt>
			<trkpt lat="54.406350" lon="20.379420"><ele>131.4</ele><time>2026-08-04T11:26:31Z</time></trkpt>
			<trkpt lat="54.406560" lon="20.379870"><ele>132.0</ele><time>2026-08-04T11:26:32Z</time></trkpt>
			<trkpt lat="54.406450" lon="20.380110"><ele>132.3</ele><time>2026-08-04T11:26:33Z</time></trkpt>
			<trkpt lat="54.406270" lon="20.381090"><ele>133.4</ele><time>2026-08-04T11:26:34Z</time></trkpt>
			<trkpt lat="54.405750" lon="20.385550"><ele>132.1</ele><time>2026-08-04T11:26:35Z</time></trkpt>
			<trkpt lat="54.405660" lon="20.387290"><ele>130.0</ele><time>2026-08-04T11:26:36Z</time></trkpt>
			<trkpt lat="54.405660" lon="20.388320"><ele>128.6</ele><time>2026-08-04T11:26:37Z</time></trkpt>
			<trkpt lat="54.405890" lon="20.392380"><ele>124.9</ele><time>2026-08-04T11:26:38Z</time></trkpt>
			<trkpt lat="54.406750" lon="20.404950"><ele>135.3</ele><time>2026-08-04T11:26:39Z</time></trkpt>
			<trkpt lat="54.406930" lon="20.407220"><ele>138.9</ele><time>2026-08-04T11:26:40Z</time></trkpt>
			<trkpt lat="54.407590" lon="20.417690"><ele>136.7</ele><time>2026-08-04T11:26:41Z</time></trkpt>
			<trkpt lat="54.408110" lon="20.424890"><ele>139.1</ele><time>2026-08-04T11:26:42Z</time></trkpt>
			<trkpt lat="54.408130" lon="20.426130"><ele>140.4</ele><time>2026-08-04T11:26:43Z</time></trkpt>
			<trkpt lat="54.408120" lon="20.426370"><ele>140.6</ele><time>2026-08-04T11:26:44Z</time></trkpt>
			<trkpt lat="54.408000" lon="20.426890"><ele>141.2</ele><time>2026-08-04T11:26:45Z</time></trkpt>
			<trkpt lat="54.407710" lon="20.427580"><ele>142.1</ele><time>2026-08-04T11:26:46Z</time></trkpt>
			<trkpt lat="54.406010" lon="20.430980"><ele>148.2</ele><time>2026-08-04T11:26:47Z</time></trkpt>
			<trkpt lat="54.405830" lon="20.431250"><ele>148.2</ele><time>2026-08-04T11:26:48Z</time></trkpt>
			<trkpt lat="54.405400" lon="20.431700"><ele>148.0</ele><time>2026-08-04T11:26:49Z</time></trkpt>
			<trkpt lat="54.405350" lon="20.431890"><ele>148.0</ele><time>2026-08-04T11:26:50Z</time></trkpt>
			<trkpt lat="54.405360" lon="20.432030"><ele>148.0</ele><time>2026-08-04T11:26:51Z</time></trkpt>
			<trkpt lat="54.406540" lon="20.433900"><ele>150.1</ele><time>2026-08-04T11:26:52Z</time></trkpt>
			<trkpt lat="54.407510" lon="20.435520"><ele>149.9</ele><time>2026-08-04T11:26:53Z</time></trkpt>
			<trkpt lat="54.412520" lon="20.445170"><ele>149.2</ele><time>2026-08-04T11:26:54Z</time></trkpt>
			<trkpt lat="54.413580" lon="20.447270"><ele>146.0</ele><time>2026-08-04T11:26:55Z</time></trkpt>
			<trkpt lat="54.414150" lon="20.448520"><ele>144.7</ele><time>2026-08-04T11:26:56Z</time></trkpt>
			<trkpt lat="54.414440" lon="20.449480"><ele>144.9</ele><time>2026-08-04T11:26:57Z</time></trkpt>
			<trkpt lat="54.414500" lon="20.450570"><ele>145.2</ele><time>2026-08-04T11:26:58Z</time></trkpt>
			<trkpt lat="54.414550" lon="20.450940"><ele>145.2</ele><time>2026-08-04T11:26:59Z</time></trkpt>
			<trkpt lat="54.414720" lon="20.451400"><ele>145.2</ele><time>2026-08-04T11:27:00Z</time></trkpt>
			<trkpt lat="54.414820" lon="20.451560"><ele>145.2</ele><time>2026-08-04T11:27:01Z</time></trkpt>
			<trkpt lat="54.414950" lon="20.451680"><ele>145.2</ele><time>2026-08-04T11:27:02Z</time></trkpt>
			<trkpt lat="54.415660" lon="20.452230"><ele>145.0</ele><time>2026-08-04T11:27:03Z</time></trkpt>
			<trkpt lat="54.416150" lon="20.452510"><ele>144.9</ele><time>2026-08-04T11:27:04Z</time></trkpt>
			<trkpt lat="54.418220" lon="20.453090"><ele>140.5</ele><time>2026-08-04T11:27:05Z</time></trkpt>
			<trkpt lat="54.418430" lon="20.453250"><ele>139.8</ele><time>2026-08-04T11:27:06Z</time></trkpt>
			<trkpt lat="54.418720" lon="20.453580"><ele>138.6</ele><time>2026-08-04T11:27:07Z</time></trkpt>
			<trkpt lat="54.418900" lon="20.453880"><ele>137.7</ele><time>2026-08-04T11:27:08Z</time></trkpt>
			<trkpt lat="54.419100" lon="20.454320"><ele>136.6</ele><time>2026-08-04T11:27:09Z</time></trkpt>
			<trkpt lat="54.419190" lon="20.454560"><ele>136.0</ele><time>2026-08-04T11:27:10Z</time></trkpt>
			<trkpt lat="54.419410" lon="20.455500"><ele>134.3</ele><time>2026-08-04T11:27:11Z</time></trkpt>
			<trkpt lat="54.419410" lon="20.456170"><ele>133.3</ele><time>2026-08-04T11:27:12Z</time></trkpt>
			<trkpt lat="54.418790" lon="20.465010"><ele>120.3</ele><time>2026-08-04T11:27:13Z</time></trkpt>
			<trkpt lat="54.418790" lon="20.465010"><ele>120.3</ele><time>2026-08-04T11:27:14Z</time></trkpt>
			<trkpt lat="54.418630" lon="20.466830"><ele>117.7</ele><time>2026-08-04T11:27:15Z</time></trkpt>
			<trkpt lat="54.418630" lon="20.466830"><ele>117.7</ele><time>2026-08-04T11:27:16Z</time></trkpt>
			<trkpt lat="54.418160" lon="20.470610"><ele>116.2</ele><time>2026-08-04T11:27:17Z</time></trkpt>
			<trkpt lat="54.418160" lon="20.470610"><ele>116.2</ele><time>2026-08-04T11:27:18Z</time></trkpt>
			<trkpt lat="54.418040" lon="20.471540"><ele>115.1</ele><time>2026-08-04T11:27:19Z</time></trkpt>
			<trkpt lat="54.418030" lon="20.471890"><ele>114.7</ele><time>2026-08-04T11:27:20Z</time></trkpt>
			<trkpt lat="54.418030" lon="20.471890"><ele>114.7</ele><time>2026-08-04T11:27:21Z</time></trkpt>
			<trkpt lat="54.418010" lon="20.473160"><ele>113.3</ele><time>2026-08-04T11:27:22Z</time></trkpt>
			<trkpt lat="54.418040" lon="20.473500"><ele>112.8</ele><time>2026-08-04T11:27:23Z</time></trkpt>
			<trkpt lat="54.418040" lon="20.473500"><ele>112.8</ele><time>2026-08-04T11:27:24Z</time></trkpt>
			<trkpt lat="54.418100" lon="20.474290"><ele>111.5</ele><time>2026-08-04T11:27:25Z</time></trkpt>
			<trkpt lat="54.418870" lon="20.480820"><ele>101.5</ele><time>2026-08-04T11:27:26Z</time></trkpt>
			<trkpt lat="54.418870" lon="20.480820"><ele>101.5</ele><time>2026-08-04T11:27:27Z</time></trkpt>
			<trkpt lat="54.419450" lon="20.485670"><ele>95.8</ele><time>2026-08-04T11:27:28Z</time></trkpt>
			<trkpt lat="54.419450" lon="20.485670"><ele>95.8</ele><time>2026-08-04T11:27:29Z</time></trkpt>
			<trkpt lat="54.419690" lon="20.487600"><ele>97.0</ele><time>2026-08-04T11:27:30Z</time></trkpt>
			<trkpt lat="54.419690" lon="20.487600"><ele>97.0</ele><time>2026-08-04T11:27:31Z</time></trkpt>
			<trkpt lat="54.419810" lon="20.488630"><ele>97.6</ele><time>2026-08-04T11:27:32Z</time></trkpt>
			<trkpt lat="54.419940" lon="20.489930"><ele>95.9</ele><time>2026-08-04T11:27:33Z</time></trkpt>
			<trkpt lat="54.419940" lon="20.489930"><ele>95.9</ele><time>2026-08-04T11:27:34Z</time></trkpt>
			<trkpt lat="54.419960" lon="20.490190"><ele>95.6</ele><time>2026-08-04T11:27:35Z</time></trkpt>
			<trkpt lat="54.420070" lon="20.491780"><ele>93.5</ele><time>2026-08-04T11:27:36Z</time></trkpt>
			<trkpt lat="54.420310" lon="20.495800"><ele>86.9</ele><time>2026-08-04T11:27:37Z</time></trkpt>
			<trkpt lat="54.420310" lon="20.495800"><ele>86.9</ele><time>2026-08-04T11:27:38Z</time></trkpt>
			<trkpt lat="54.420450" lon="20.498170"><ele>83.8</ele><time>2026-08-04T11:27:39Z</time></trkpt>
			<trkpt lat="54.420590" lon="20.500680"><ele>84.5</ele><time>2026-08-04T11:27:40Z</time></trkpt>
			<trkpt lat="54.420650" lon="20.501750"><ele>83.8</ele><time>2026-08-04T11:27:41Z</time></trkpt>
			<trkpt lat="54.420760" lon="20.502580"><ele>82.8</ele><time>2026-08-04T11:27:42Z</time></trkpt>
			<trkpt lat="54.421080" lon="20.507970"><ele>79.0</ele><time>2026-08-04T11:27:43Z</time></trkpt>
			<trkpt lat="54.421300" lon="20.511410"><ele>75.3</ele><time>2026-08-04T11:27:44Z</time></trkpt>
			<trkpt lat="54.421420" lon="20.513340"><ele>74.6</ele><time>2026-08-04T11:27:45Z</time></trkpt>
			<trkpt lat="54.421640" lon="20.515590"><ele>72.5</ele><time>2026-08-04T11:27:46Z</time></trkpt>
			<trkpt lat="54.422010" lon="20.518060"><ele>70.8</ele><time>2026-08-04T11:27:47Z</time></trkpt>
			<trkpt lat="54.422180" lon="20.519200"><ele>70.1</ele><time>2026-08-04T11:27:48Z</time></trkpt>
			<trkpt lat="54.422110" lon="20.519900"><ele>69.5</ele><time>2026-08-04T11:27:49Z</time></trkpt>
			<trkpt lat="54.422030" lon="20.520340"><ele>69.1</ele><time>2026-08-04T11:27:50Z</time></trkpt>
			<trkpt lat="54.421840" lon="20.521380"><ele>68.0</ele><time>2026-08-04T11:27:51Z</time></trkpt>
			<trkpt lat="54.421630" lon="20.522630"><ele>67.3</ele><time>2026-08-04T11:27:52Z</time></trkpt>
			<trkpt lat="54.421440" lon="20.523790"><ele>68.5</ele><time>2026-08-04T11:27:53Z</time></trkpt>
			<trkpt lat="54.421120" lon="20.525580"><ele>70.3</ele><time>2026-08-04T11:27:54Z</time></trkpt>
			<trkpt lat="54.420430" lon="20.529740"><ele>70.4</ele><time>2026-08-04T11:27:55Z</time></trkpt>
			<trkpt lat="54.420210" lon="20.531770"><ele>69.2</ele><time>2026-08-04T11:27:56Z</time></trkpt>
			<trkpt lat="54.420160" lon="20.533260"><ele>67.5</ele><time>2026-08-04T11:27:57Z</time></trkpt>
			<trkpt lat="54.420180" lon="20.534330"><ele>66.3</ele><time>2026-08-04T11:27:58Z</time></trkpt>
			<trkpt lat="54.420250" lon="20.534980"><ele>65.5</ele><time>2026-08-04T11:27:59Z</time></trkpt>
			<trkpt lat="54.420460" lon="20.536720"><ele>63.3</ele><time>2026-08-04T11:28:00Z</time></trkpt>
			<trkpt lat="54.420510" lon="20.537520"><ele>62.3</ele><time>2026-08-04T11:28:01Z</time></trkpt>
			<trkpt lat="54.420460" lon="20.538690"><ele>61.6</ele><time>2026-08-04T11:28:02Z</time></trkpt>
			<trkpt lat="54.420350" lon="20.540810"><ele>60.4</ele><time>2026-08-04T11:28:03Z</time></trkpt>
			<trkpt lat="54.420330" lon="20.541090"><ele>60.4</ele><time>2026-08-04T11:28:04Z</time></trkpt>
			<trkpt lat="54.419840" lon="20.545320"><ele>58.3</ele><time>2026-08-04T11:28:05Z</time></trkpt>
			<trkpt lat="54.419710" lon="20.546250"><ele>56.8</ele><time>2026-08-04T11:28:06Z</time></trkpt>
			<trkpt lat="54.419480" lon="20.546730"><ele>56.0</ele><time>2026-08-04T11:28:07Z</time></trkpt>
			<trkpt lat="54.416920" lon="20.550840"><ele>53.2</ele><time>2026-08-04T11:28:08Z</time></trkpt>
			<trkpt lat="54.416220" lon="20.552010"><ele>53.3</ele><time>2026-08-04T11:28:09Z</time></trkpt>
			<trkpt lat="54.415080" lon="20.553840"><ele>53.5</ele><time>2026-08-04T11:28:10Z</time></trkpt>
			<trkpt lat="54.412260" lon="20.558450"><ele>56.1</ele><time>2026-08-04T11:28:11Z</time></trkpt>
			<trkpt lat="54.412040" lon="20.558640"><ele>56.6</ele><time>2026-08-04T11:28:12Z</time></trkpt>
			<trkpt lat="54.411850" lon="20.558770"><ele>57.0</ele><time>2026-08-04T11:28:13Z</time></trkpt>
			<trkpt lat="54.411040" lon="20.559300"><ele>59.3</ele><time>2026-08-04T11:28:14Z</time></trkpt>
			<trkpt lat="54.410890" lon="20.559400"><ele>59.9</ele><time>2026-08-04T11:28:15Z</time></trkpt>
			<trkpt lat="54.408840" lon="20.560660"><ele>68.5</ele><time>2026-08-04T11:28:16Z</time></trkpt>
			<trkpt lat="54.408650" lon="20.560780"><ele>69.4</ele><time>2026-08-04T11:28:17Z</time></trkpt>
			<trkpt lat="54.406830" lon="20.561910"><ele>72.7</ele><time>2026-08-04T11:28:18Z</time></trkpt>
			<trkpt lat="54.406830" lon="20.561910"><ele>72.7</ele><time>2026-08-04T11:28:19Z</time></trkpt>
			<trkpt lat="54.404780" lon="20.563190"><ele>75.0</ele><time>2026-08-04T11:28:20Z</time></trkpt>
			<trkpt lat="54.402140" lon="20.564840"><ele>85.9</ele><time>2026-08-04T11:28:21Z</time></trkpt>
			<trkpt lat="54.401760" lon="20.565090"><ele>87.4</ele><time>2026-08-04T11:28:22Z</time></trkpt>
			<trkpt lat="54.401630" lon="20.565200"><ele>88.0</ele><time>2026-08-04T11:28:23Z</time></trkpt>
			<trkpt lat="54.401620" lon="20.565240"><ele>88.1</ele><time>2026-08-04T11:28:24Z</time></trkpt>
			<trkpt lat="54.401500" lon="20.565450"><ele>88.7</ele><time>2026-08-04T11:28:25Z</time></trkpt>
			<trkpt lat="54.401290" lon="20.566290"><ele>88.7</ele><time>2026-08-04T11:28:26Z</time></trkpt>
			<trkpt lat="54.401130" lon="20.566790"><ele>88.2</ele><time>2026-08-04T11:28:27Z</time></trkpt>
			<trkpt lat="54.400240" lon="20.568740"><ele>85.8</ele><time>2026-08-04T11:28:28Z</time></trkpt>
			<trkpt lat="54.400040" lon="20.569280"><ele>85.0</ele><time>2026-08-04T11:28:29Z</time></trkpt>
			<trkpt lat="54.400050" lon="20.569290"><ele>85.0</ele><time>2026-08-04T11:28:30Z</time></trkpt>
			<trkpt lat="54.400000" lon="20.569610"><ele>84.6</ele><time>2026-08-04T11:28:31Z</time></trkpt>
			<trkpt lat="54.399810" lon="20.571260"><ele>82.7</ele><time>2026-08-04T11:28:32Z</time></trkpt>
			<trkpt lat="54.399610" lon="20.572850"><ele>82.8</ele><time>2026-08-04T11:28:33Z</time></trkpt>
			<trkpt lat="54.399480" lon="20.573610"><ele>82.8</ele><time>2026-08-04T11:28:34Z</time></trkpt>
			<trkpt lat="54.399240" lon="20.574420"><ele>82.9</ele><time>2026-08-04T11:28:35Z</time></trkpt>
			<trkpt lat="54.398900" lon="20.575190"><ele>83.0</ele><time>2026-08-04T11:28:36Z</time></trkpt>
			<trkpt lat="54.398400" lon="20.576150"><ele>83.2</ele><time>2026-08-04T11:28:37Z</time></trkpt>
			<trkpt lat="54.397800" lon="20.577220"><ele>82.7</ele><time>2026-08-04T11:28:38Z</time></trkpt>
			<trkpt lat="54.397330" lon="20.578200"><ele>82.1</ele><time>2026-08-04T11:28:39Z</time></trkpt>
			<trkpt lat="54.397040" lon="20.578980"><ele>81.7</ele><time>2026-08-04T11:28:40Z</time></trkpt>
			<trkpt lat="54.396590" lon="20.580400"><ele>81.2</ele><time>2026-08-04T11:28:41Z</time></trkpt>
			<trkpt lat="54.396410" lon="20.580970"><ele>81.0</ele><time>2026-08-04T11:28:42Z</time></trkpt>
			<trkpt lat="54.396070" lon="20.581880"><ele>80.4</ele><time>2026-08-04T11:28:43Z</time></trkpt>
			<trkpt lat="54.394350" lon="20.585990"><ele>80.0</ele><time>2026-08-04T11:28:44Z</time></trkpt>
			<trkpt lat="54.394220" lon="20.586430"><ele>80.5</ele><time>2026-08-04T11:28:45Z</time></trkpt>
			<trkpt lat="54.394110" lon="20.586960"><ele>80.6</ele><time>2026-08-04T11:28:46Z</time></trkpt>
			<trkpt lat="54.394040" lon="20.588280"><ele>79.2</ele><time>2026-08-04T11:28:47Z</time></trkpt>
			<trkpt lat="54.393670" lon="20.592410"><ele>73.2</ele><time>2026-08-04T11:28:48Z</time></trkpt>
			<trkpt lat="54.393230" lon="20.595720"><ele>67.4</ele><time>2026-08-04T11:28:49Z</time></trkpt>
			<trkpt lat="54.393230" lon="20.595720"><ele>67.4</ele><time>2026-08-04T11:28:50Z</time></trkpt>
			<trkpt lat="54.392950" lon="20.597790"><ele>64.5</ele><time>2026-08-04T11:28:51Z</time></trkpt>
			<trkpt lat="54.392330" lon="20.602550"><ele>61.3</ele><time>2026-08-04T11:28:52Z</time></trkpt>
			<trkpt lat="54.392090" lon="20.604150"><ele>61.3</ele><time>2026-08-04T11:28:53Z</time></trkpt>
			<trkpt lat="54.391910" lon="20.604880"><ele>61.2</ele><time>2026-08-04T11:28:54Z</time></trkpt>
			<trkpt lat="54.391020" lon="20.607880"><ele>61.1</ele><time>2026-08-04T11:28:55Z</time></trkpt>
			<trkpt lat="54.390590" lon="20.609350"><ele>61.8</ele><time>2026-08-04T11:28:56Z</time></trkpt>
			<trkpt lat="54.389970" lon="20.611510"><ele>62.5</ele><time>2026-08-04T11:28:57Z</time></trkpt>
			<trkpt lat="54.389330" lon="20.613690"><ele>63.3</ele><time>2026-08-04T11:28:58Z</time></trkpt>
			<trkpt lat="54.388350" lon="20.617090"><ele>68.8</ele><time>2026-08-04T11:28:59Z</time></trkpt>
			<trkpt lat="54.387950" lon="20.618440"><ele>71.0</ele><time>2026-08-04T11:29:00Z</time></trkpt>
			<trkpt lat="54.387860" lon="20.618820"><ele>71.6</ele><time>2026-08-04T11:29:01Z</time></trkpt>
			<trkpt lat="54.387820" lon="20.619020"><ele>71.9</ele><time>2026-08-04T11:29:02Z</time></trkpt>
			<trkpt lat="54.387820" lon="20.619360"><ele>72.3</ele><time>2026-08-04T11:29:03Z</time></trkpt>
			<trkpt lat="54.387830" lon="20.619480"><ele>72.5</ele><time>2026-08-04T11:29:04Z</time></trkpt>
			<trkpt lat="54.387850" lon="20.619690"><ele>72.8</ele><time>2026-08-04T11:29:05Z</time></trkpt>
			<trkpt lat="54.387960" lon="20.620310"><ele>73.6</ele><time>2026-08-04T11:29:06Z</time></trkpt>
			<trkpt lat="54.388250" lon="20.622010"><ele>75.5</ele><time>2026-08-04T11:29:07Z</time></trkpt>
			<trkpt lat="54.388530" lon="20.624450"><ele>73.0</ele><time>2026-08-04T11:29:08Z</time></trkpt>
			<trkpt lat="54.388570" lon="20.624890"><ele>72.5</ele><time>2026-08-04T11:29:09Z</time></trkpt>
			<trkpt lat="54.388560" lon="20.625300"><ele>72.2</ele><time>2026-08-04T11:29:10Z</time></trkpt>
			<trkpt lat="54.388530" lon="20.625890"><ele>71.8</ele><time>2026-08-04T11:29:11Z</time></trkpt>
			<trkpt lat="54.388510" lon="20.626130"><ele>71.6</ele><time>2026-08-04T11:29:12Z</time></trkpt>
			<trkpt lat="54.388490" lon="20.626380"><ele>71.4</ele><time>2026-08-04T11:29:13Z</time></trkpt>
			<trkpt lat="54.388390" lon="20.626960"><ele>70.9</ele><time>2026-08-04T11:29:14Z</time></trkpt>
			<trkpt lat="54.388340" lon="20.627120"><ele>70.8</ele><time>2026-08-04T11:29:15Z</time></trkpt>
			<trkpt lat="54.388290" lon="20.627270"><ele>70.6</ele><time>2026-08-04T11:29:16Z</time></trkpt>
			<trkpt lat="54.388210" lon="20.627450"><ele>70.5</ele><time>2026-08-04T11:29:17Z</time></trkpt>
			<trkpt lat="54.388090" lon="20.627660"><ele>70.2</ele><time>2026-08-04T11:29:18Z</time></trkpt>
			<trkpt lat="54.387680" lon="20.628250"><ele>69.9</ele><time>2026-08-04T11:29:19Z</time></trkpt>
			<trkpt lat="54.387530" lon="20.628500"><ele>69.8</ele><time>2026-08-04T11:29:20Z</time></trkpt>
			<trkpt lat="54.387440" lon="20.628710"><ele>69.7</ele><time>2026-08-04T11:29:21Z</time></trkpt>
			<trkpt lat="54.387270" lon="20.629200"><ele>69.5</ele><time>2026-08-04T11:29:22Z</time></trkpt>
			<trkpt lat="54.387190" lon="20.629470"><ele>69.4</ele><time>2026-08-04T11:29:23Z</time></trkpt>
			<trkpt lat="54.387190" lon="20.629480"><ele>69.4</ele><time>2026-08-04T11:29:24Z</time></trkpt>
			<trkpt lat="54.387120" lon="20.629700"><ele>69.3</ele><time>2026-08-04T11:29:25Z</time></trkpt>
			<trkpt lat="54.386550" lon="20.631530"><ele>70.1</ele><time>2026-08-04T11:29:26Z</time></trkpt>
			<trkpt lat="54.386490" lon="20.631770"><ele>70.3</ele><time>2026-08-04T11:29:27Z</time></trkpt>
			<trkpt lat="54.386400" lon="20.632700"><ele>70.9</ele><time>2026-08-04T11:29:28Z</time></trkpt>
			<trkpt lat="54.386320" lon="20.633690"><ele>72.5</ele><time>2026-08-04T11:29:29Z</time></trkpt>
			<trkpt lat="54.386280" lon="20.634010"><ele>73.3</ele><time>2026-08-04T11:29:30Z</time></trkpt>
			<trkpt lat="54.386240" lon="20.634150"><ele>73.6</ele><time>2026-08-04T11:29:31Z</time></trkpt>
			<trkpt lat="54.386300" lon="20.634200"><ele>73.9</ele><time>2026-08-04T11:29:32Z</time></trkpt>
			<trkpt lat="54.386470" lon="20.635040"><ele>75.8</ele><time>2026-08-04T11:29:33Z</time></trkpt>
			<trkpt lat="54.386520" lon="20.635240"><ele>76.3</ele><time>2026-08-04T11:29:34Z</time></trkpt>
			<trkpt lat="54.386620" lon="20.635480"><ele>77.0</ele><time>2026-08-04T11:29:35Z</time></trkpt>
			<trkpt lat="54.386690" lon="20.636060"><ele>78.1</ele><time>2026-08-04T11:29:36Z</time></trkpt>
			<trkpt lat="54.386730" lon="20.636470"><ele>78.5</ele><time>2026-08-04T11:29:37Z</time></trkpt>
			<trkpt lat="54.386740" lon="20.637190"><ele>79.2</ele><time>2026-08-04T11:29:38Z</time></trkpt>
			<trkpt lat="54.386740" lon="20.637190"><ele>79.2</ele><time>2026-08-04T11:29:39Z</time></trkpt>
			<trkpt lat="54.386750" lon="20.637350"><ele>79.3</ele><time>2026-08-04T11:29:40Z</time></trkpt>
			<trkpt lat="54.386720" lon="20.638350"><ele>80.2</ele><time>2026-08-04T11:29:41Z</time></trkpt>
			<trkpt lat="54.386700" lon="20.638690"><ele>80.5</ele><time>2026-08-04T11:29:42Z</time></trkpt>
			<trkpt lat="54.386570" lon="20.639320"><ele>80.4</ele><time>2026-08-04T11:29:43Z</time></trkpt>
			<trkpt lat="54.386490" lon="20.639530"><ele>80.0</ele><time>2026-08-04T11:29:44Z</time></trkpt>
			<trkpt lat="54.386570" lon="20.639660"><ele>79.7</ele><time>2026-08-04T11:29:45Z</time></trkpt>
			<trkpt lat="54.386600" lon="20.639700"><ele>79.6</ele><time>2026-08-04T11:29:46Z</time></trkpt>
			<trkpt lat="54.386250" lon="20.640670"><ele>77.9</ele><time>2026-08-04T11:29:47Z</time></trkpt>
			<trkpt lat="54.386970" lon="20.642220"><ele>75.2</ele><time>2026-08-04T11:29:48Z</time></trkpt>
			<trkpt lat="54.387060" lon="20.642480"><ele>74.8</ele><time>2026-08-04T11:29:49Z</time></trkpt>
			<trkpt lat="54.387130" lon="20.642750"><ele>74.5</ele><time>2026-08-04T11:29:50Z</time></trkpt>
			<trkpt lat="54.387320" lon="20.644160"><ele>72.6</ele><time>2026-08-04T11:29:51Z</time></trkpt>
			<trkpt lat="54.387420" lon="20.644550"><ele>72.7</ele><time>2026-08-04T11:29:52Z</time></trkpt>
			<trkpt lat="54.388140" lon="20.646340"><ele>75.1</ele><time>2026-08-04T11:29:53Z</time></trkpt>
			<trkpt lat="54.388230" lon="20.646630"><ele>75.4</ele><time>2026-08-04T11:29:54Z</time></trkpt>
			<trkpt lat="54.388260" lon="20.646810"><ele>75.6</ele><time>2026-08-04T11:29:55Z</time></trkpt>
			<trkpt lat="54.388270" lon="20.648070"><ele>74.5</ele><time>2026-08-04T11:29:56Z</time></trkpt>
			<trkpt lat="54.388190" lon="20.648280"><ele>74.2</ele><time>2026-08-04T11:29:57Z</time></trkpt>
			<trkpt lat="54.388090" lon="20.648720"><ele>73.6</ele><time>2026-08-04T11:29:58Z</time></trkpt>
			<trkpt lat="54.387110" lon="20.654350"><ele>73.8</ele><time>2026-08-04T11:29:59Z</time></trkpt>
			<trkpt lat="54.386930" lon="20.655240"><ele>74.5</ele><time>2026-08-04T11:30:00Z</time></trkpt>
			<trkpt lat="54.385780" lon="20.659680"><ele>74.6</ele><time>2026-08-04T11:30:01Z</time></trkpt>
			<trkpt lat="54.385580" lon="20.660610"><ele>75.1</ele><time>2026-08-04T11:30:02Z</time></trkpt>
			<trkpt lat="54.385540" lon="20.660950"><ele>75.3</ele><time>2026-08-04T11:30:03Z</time></trkpt>
			<trkpt lat="54.385350" lon="20.668420"><ele>76.4</ele><time>2026-08-04T11:30:04Z</time></trkpt>
			<trkpt lat="54.385000" lon="20.680020"><ele>74.8</ele><time>2026-08-04T11:30:05Z</time></trkpt>
			<trkpt lat="54.384860" lon="20.686290"><ele>69.6</ele><time>2026-08-04T11:30:06Z</time></trkpt>
			<trkpt lat="54.384800" lon="20.686760"><ele>69.3</ele><time>2026-08-04T11:30:07Z</time></trkpt>
			<trkpt lat="54.384700" lon="20.687090"><ele>69.2</ele><time>2026-08-04T11:30:08Z</time></trkpt>
			<trkpt lat="54.383520" lon="20.688900"><ele>68.3</ele><time>2026-08-04T11:30:09Z</time></trkpt>
			<trkpt lat="54.383390" lon="20.689170"><ele>68.5</ele><time>2026-08-04T11:30:10Z</time></trkpt>
			<trkpt lat="54.383220" lon="20.689800"><ele>68.9</ele><time>2026-08-04T11:30:11Z</time></trkpt>
			<trkpt lat="54.383120" lon="20.690410"><ele>69.3</ele><time>2026-08-04T11:30:12Z</time></trkpt>
			<trkpt lat="54.383110" lon="20.691070"><ele>69.6</ele><time>2026-08-04T11:30:13Z</time></trkpt>
			<trkpt lat="54.383150" lon="20.691510"><ele>69.9</ele><time>2026-08-04T11:30:14Z</time></trkpt>
			<trkpt lat="54.383700" lon="20.693930"><ele>68.5</ele><time>2026-08-04T11:30:15Z</time></trkpt>
			<trkpt lat="54.383740" lon="20.694300"><ele>68.3</ele><time>2026-08-04T11:30:16Z</time></trkpt>
			<trkpt lat="54.383630" lon="20.695870"><ele>66.2</ele><time>2026-08-04T11:30:17Z</time></trkpt>
			<trkpt lat="54.382760" lon="20.704580"><ele>67.0</ele><time>2026-08-04T11:30:18Z</time></trkpt>
			<trkpt lat="54.380760" lon="20.715850"><ele>64.0</ele><time>2026-08-04T11:30:19Z</time></trkpt>
			<trkpt lat="54.380760" lon="20.716580"><ele>63.9</ele><time>2026-08-04T11:30:20Z</time></trkpt>
			<trkpt lat="54.380870" lon="20.717890"><ele>63.8</ele><time>2026-08-04T11:30:21Z</time></trkpt>
			<trkpt lat="54.380890" lon="20.718500"><ele>63.8</ele><time>2026-08-04T11:30:22Z</time></trkpt>
			<trkpt lat="54.380690" lon="20.722050"><ele>62.0</ele><time>2026-08-04T11:30:23Z</time></trkpt>
			<trkpt lat="54.380730" lon="20.722630"><ele>62.5</ele><time>2026-08-04T11:30:24Z</time></trkpt>
			<trkpt lat="54.381080" lon="20.725160"><ele>63.9</ele><time>2026-08-04T11:30:25Z</time></trkpt>
			<trkpt lat="54.381090" lon="20.726010"><ele>63.4</ele><time>2026-08-04T11:30:26Z</time></trkpt>
			<trkpt lat="54.381000" lon="20.728820"><ele>62.6</ele><time>2026-08-04T11:30:27Z</time></trkpt>
			<trkpt lat="54.381010" lon="20.729450"><ele>62.8</ele><time>2026-08-04T11:30:28Z</time></trkpt>
			<trkpt lat="54.381090" lon="20.730060"><ele>63.0</ele><time>2026-08-04T11:30:29Z</time></trkpt>
			<trkpt lat="54.384100" lon="20.744970"><ele>75.2</ele><time>2026-08-04T11:30:30Z</time></trkpt>
			<trkpt lat="54.384280" lon="20.745650"><ele>76.5</ele><time>2026-08-04T11:30:31Z</time></trkpt>
			<trkpt lat="54.384570" lon="20.746380"><ele>75.7</ele><time>2026-08-04T11:30:32Z</time></trkpt>
			<trkpt lat="54.388170" lon="20.753150"><ele>74.3</ele><time>2026-08-04T11:30:33Z</time></trkpt>
			<trkpt lat="54.388470" lon="20.753790"><ele>73.8</ele><time>2026-08-04T11:30:34Z</time></trkpt>
			<trkpt lat="54.388710" lon="20.754550"><ele>73.2</ele><time>2026-08-04T11:30:35Z</time></trkpt>
			<trkpt lat="54.388810" lon="20.755050"><ele>72.9</ele><time>2026-08-04T11:30:36Z</time></trkpt>
			<trkpt lat="54.389210" lon="20.764910"><ele>87.1</ele><time>2026-08-04T11:30:37Z</time></trkpt>
			<trkpt lat="54.389260" lon="20.765550"><ele>86.5</ele><time>2026-08-04T11:30:38Z</time></trkpt>
			<trkpt lat="54.389680" lon="20.775910"><ele>91.2</ele><time>2026-08-04T11:30:39Z</time></trkpt>
			<trkpt lat="54.389710" lon="20.777240"><ele>93.5</ele><time>2026-08-04T11:30:40Z</time></trkpt>
			<trkpt lat="54.389980" lon="20.780260"><ele>95.6</ele><time>2026-08-04T11:30:41Z</time></trkpt>
			<trkpt lat="54.390180" lon="20.781570"><ele>96.9</ele><time>2026-08-04T11:30:42Z</time></trkpt>
			<trkpt lat="54.390370" lon="20.782040"><ele>97.5</ele><time>2026-08-04T11:30:43Z</time></trkpt>
			<trkpt lat="54.390500" lon="20.782200"><ele>97.7</ele><time>2026-08-04T11:30:44Z</time></trkpt>
			<trkpt lat="54.390650" lon="20.782340"><ele>98.0</ele><time>2026-08-04T11:30:45Z</time></trkpt>
			<trkpt lat="54.391160" lon="20.782670"><ele>98.1</ele><time>2026-08-04T11:30:46Z</time></trkpt>
			<trkpt lat="54.392260" lon="20.783240"><ele>98.0</ele><time>2026-08-04T11:30:47Z</time></trkpt>
			<trkpt lat="54.392830" lon="20.783490"><ele>98.3</ele><time>2026-08-04T11:30:48Z</time></trkpt>
			<trkpt lat="54.395560" lon="20.784820"><ele>99.1</ele><time>2026-08-04T11:30:49Z</time></trkpt>
			<trkpt lat="54.397550" lon="20.785860"><ele>96.8</ele><time>2026-08-04T11:30:50Z</time></trkpt>
			<trkpt lat="54.398180" lon="20.786260"><ele>97.2</ele><time>2026-08-04T11:30:51Z</time></trkpt>
			<trkpt lat="54.398500" lon="20.786510"><ele>97.6</ele><time>2026-08-04T11:30:52Z</time></trkpt>
			<trkpt lat="54.398920" lon="20.786960"><ele>98.1</ele><time>2026-08-04T11:30:53Z</time></trkpt>
			<trkpt lat="54.400130" lon="20.788480"><ele>99.3</ele><time>2026-08-04T11:30:54Z</time></trkpt>
			<trkpt lat="54.401630" lon="20.790220"><ele>100.1</ele><time>2026-08-04T11:30:55Z</time></trkpt>
			<trkpt lat="54.401900" lon="20.790630"><ele>100.2</ele><time>2026-08-04T11:30:56Z</time></trkpt>
			<trkpt lat="54.401900" lon="20.790630"><ele>100.2</ele><time>2026-08-04T11:30:57Z</time></trkpt>
			<trkpt lat="54.402140" lon="20.791350"><ele>100.2</ele><time>2026-08-04T11:30:58Z</time></trkpt>
			<trkpt lat="54.402430" lon="20.792750"><ele>98.4</ele><time>2026-08-04T11:30:59Z</time></trkpt>
			<trkpt lat="54.402840" lon="20.794250"><ele>96.6</ele><time>2026-08-04T11:31:00Z</time></trkpt>
			<trkpt lat="54.403160" lon="20.795700"><ele>95.8</ele><time>2026-08-04T11:31:01Z</time></trkpt>
			<trkpt lat="54.403470" lon="20.797520"><ele>94.7</ele><time>2026-08-04T11:31:02Z</time></trkpt>
			<trkpt lat="54.404550" lon="20.804110"><ele>89.7</ele><time>2026-08-04T11:31:03Z</time></trkpt>
			<trkpt lat="54.404930" lon="20.804710"><ele>89.0</ele><time>2026-08-04T11:31:04Z</time></trkpt>
			<trkpt lat="54.405730" lon="20.805710"><ele>88.6</ele><time>2026-08-04T11:31:05Z</time></trkpt>
			<trkpt lat="54.410430" lon="20.811510"><ele>89.4</ele><time>2026-08-04T11:31:06Z</time></trkpt>
			<trkpt lat="54.410570" lon="20.811690"><ele>89.4</ele><time>2026-08-04T11:31:07Z</time></trkpt>
			<trkpt lat="54.411170" lon="20.812110"><ele>89.7</ele><time>2026-08-04T11:31:08Z</time></trkpt>
			<trkpt lat="54.412790" lon="20.812900"><ele>88.1</ele><time>2026-08-04T11:31:09Z</time></trkpt>
			<trkpt lat="54.414410" lon="20.813880"><ele>86.0</ele><time>2026-08-04T11:31:10Z</time></trkpt>
			<trkpt lat="54.417580" lon="20.816480"><ele>79.3</ele><time>2026-08-04T11:31:11Z</time></trkpt>
			<trkpt lat="54.419390" lon="20.817980"><ele>76.4</ele><time>2026-08-04T11:31:12Z</time></trkpt>
			<trkpt lat="54.421620" lon="20.819810"><ele>77.2</ele><time>2026-08-04T11:31:13Z</time></trkpt>
			<trkpt lat="54.421650" lon="20.819910"><ele>77.3</ele><time>2026-08-04T11:31:14Z</time></trkpt>
			<trkpt lat="54.421800" lon="20.820370"><ele>77.8</ele><time>2026-08-04T11:31:15Z</time></trkpt>
			<trkpt lat="54.422070" lon="20.821680"><ele>79.1</ele><time>2026-08-04T11:31:16Z</time></trkpt>
			<trkpt lat="54.422500" lon="20.822590"><ele>78.9</ele><time>2026-08-04T11:31:17Z</time></trkpt>
			<trkpt lat="54.422870" lon="20.823120"><ele>77.9</ele><time>2026-08-04T11:31:18Z</time></trkpt>
			<trkpt lat="54.423060" lon="20.823340"><ele>77.4</ele><time>2026-08-04T11:31:19Z</time></trkpt>
			<trkpt lat="54.423790" lon="20.824080"><ele>75.8</ele><time>2026-08-04T11:31:20Z</time></trkpt>
			<trkpt lat="54.423910" lon="20.824420"><ele>75.6</ele><time>2026-08-04T11:31:21Z</time></trkpt>
			<trkpt lat="54.423970" lon="20.824730"><ele>75.5</ele><time>2026-08-04T11:31:22Z</time></trkpt>
			<trkpt lat="54.423990" lon="20.825020"><ele>75.4</ele><time>2026-08-04T11:31:23Z</time></trkpt>
			<trkpt lat="54.423990" lon="20.825230"><ele>75.3</ele><time>2026-08-04T11:31:24Z</time></trkpt>
			<trkpt lat="54.423960" lon="20.825440"><ele>75.2</ele><time>2026-08-04T11:31:25Z</time></trkpt>
			<trkpt lat="54.423840" lon="20.825830"><ele>75.0</ele><time>2026-08-04T11:31:26Z</time></trkpt>
			<trkpt lat="54.423700" lon="20.826140"><ele>74.8</ele><time>2026-08-04T11:31:27Z</time></trkpt>
			<trkpt lat="54.423640" lon="20.826350"><ele>74.7</ele><time>2026-08-04T11:31:28Z</time></trkpt>
			<trkpt lat="54.423660" lon="20.826520"><ele>74.6</ele><time>2026-08-04T11:31:29Z</time></trkpt>
			<trkpt lat="54.423740" lon="20.826900"><ele>74.6</ele><time>2026-08-04T11:31:30Z</time></trkpt>
			<trkpt lat="54.423790" lon="20.827120"><ele>74.9</ele><time>2026-08-04T11:31:31Z</time></trkpt>
			<trkpt lat="54.423920" lon="20.827750"><ele>75.6</ele><time>2026-08-04T11:31:32Z</time></trkpt>
			<trkpt lat="54.423770" lon="20.827950"><ele>76.0</ele><time>2026-08-04T11:31:33Z</time></trkpt>
			<trkpt lat="54.423600" lon="20.828190"><ele>76.4</ele><time>2026-08-04T11:31:34Z</time></trkpt>
			<trkpt lat="54.423440" lon="20.828590"><ele>76.9</ele><time>2026-08-04T11:31:35Z</time></trkpt>
			<trkpt lat="54.423380" lon="20.829280"><ele>77.7</ele><time>2026-08-04T11:31:36Z</time></trkpt>
			<trkpt lat="54.423340" lon="20.830420"><ele>76.2</ele><time>2026-08-04T11:31:37Z</time></trkpt>
			<trkpt lat="54.423360" lon="20.831100"><ele>75.1</ele><time>2026-08-04T11:31:38Z</time></trkpt>
			<trkpt lat="54.423340" lon="20.831490"><ele>74.4</ele><time>2026-08-04T11:31:39Z</time></trkpt>
			<trkpt lat="54.423300" lon="20.831710"><ele>74.0</ele><time>2026-08-04T11:31:40Z</time></trkpt>
			<trkpt lat="54.423200" lon="20.831910"><ele>73.5</ele><time>2026-08-04T11:31:41Z</time></trkpt>
			<trkpt lat="54.423040" lon="20.832130"><ele>72.9</ele><time>2026-08-04T11:31:42Z</time></trkpt>
			<trkpt lat="54.422500" lon="20.832430"><ele>73.6</ele><time>2026-08-04T11:31:43Z</time></trkpt>
			<trkpt lat="54.422010" lon="20.832560"><ele>74.8</ele><time>2026-08-04T11:31:44Z</time></trkpt>
			<trkpt lat="54.421670" lon="20.832730"><ele>75.7</ele><time>2026-08-04T11:31:45Z</time></trkpt>
			<trkpt lat="54.421190" lon="20.833270"><ele>76.9</ele><time>2026-08-04T11:31:46Z</time></trkpt>
			<trkpt lat="54.420620" lon="20.834190"><ele>76.0</ele><time>2026-08-04T11:31:47Z</time></trkpt>
			<trkpt lat="54.419610" lon="20.836010"><ele>74.7</ele><time>2026-08-04T11:31:48Z</time></trkpt>
			<trkpt lat="54.417710" lon="20.839060"><ele>72.8</ele><time>2026-08-04T11:31:49Z</time></trkpt>
			<trkpt lat="54.416860" lon="20.840280"><ele>70.6</ele><time>2026-08-04T11:31:50Z</time></trkpt>
			<trkpt lat="54.415020" lon="20.842910"><ele>66.8</ele><time>2026-08-04T11:31:51Z</time></trkpt>
			<trkpt lat="54.414340" lon="20.842970"><ele>67.0</ele><time>2026-08-04T11:31:52Z</time></trkpt>
			<trkpt lat="54.414040" lon="20.843000"><ele>68.4</ele><time>2026-08-04T11:31:53Z</time></trkpt>
			<trkpt lat="54.413870" lon="20.843400"><ele>69.9</ele><time>2026-08-04T11:31:54Z</time></trkpt>
			<trkpt lat="54.412750" lon="20.846150"><ele>75.3</ele><time>2026-08-04T11:31:55Z</time></trkpt>
			<trkpt lat="54.411640" lon="20.849850"><ele>76.3</ele><time>2026-08-04T11:31:56Z</time></trkpt>
			<trkpt lat="54.411530" lon="20.850230"><ele>76.6</ele><time>2026-08-04T11:31:57Z</time></trkpt>
			<trkpt lat="54.410300" lon="20.855460"><ele>68.1</ele><time>2026-08-04T11:31:58Z</time></trkpt>
			<trkpt lat="54.409320" lon="20.860030"><ele>65.1</ele><time>2026-08-04T11:31:59Z</time></trkpt>
			<trkpt lat="54.409010" lon="20.862660"><ele>62.3</ele><time>2026-08-04T11:32:00Z</time></trkpt>
			<trkpt lat="54.408780" lon="20.864820"><ele>60.3</ele><time>2026-08-04T11:32:01Z</time></trkpt>
			<trkpt lat="54.408060" lon="20.871460"><ele>52.6</ele><time>2026-08-04T11:32:02Z</time></trkpt>
			<trkpt lat="54.407570" lon="20.875940"><ele>49.4</ele><time>2026-08-04T11:32:03Z</time></trkpt>
			<trkpt lat="54.407170" lon="20.879140"><ele>50.2</ele><time>2026-08-04T11:32:04Z</time></trkpt>
			<trkpt lat="54.407270" lon="20.889110"><ele>49.2</ele><time>2026-08-04T11:32:05Z</time></trkpt>
			<trkpt lat="54.407280" lon="20.891190"><ele>47.3</ele><time>2026-08-04T11:32:06Z</time></trkpt>
			<trkpt lat="54.407290" lon="20.893320"><ele>43.8</ele><time>2026-08-04T11:32:07Z</time></trkpt>
			<trkpt lat="54.407350" lon="20.903950"><ele>41.8</ele><time>2026-08-04T11:32:08Z</time></trkpt>
			<trkpt lat="54.407410" lon="20.907440"><ele>38.8</ele><time>2026-08-04T11:32:09Z</time></trkpt>
			<trkpt lat="54.407530" lon="20.914650"><ele>35.9</ele><time>2026-08-04T11:32:10Z</time></trkpt>
			<trkpt lat="54.407580" lon="20.915550"><ele>34.7</ele><time>2026-08-04T11:32:11Z</time></trkpt>
			<trkpt lat="54.407700" lon="20.916340"><ele>33.5</ele><time>2026-08-04T11:32:12Z</time></trkpt>
			<trkpt lat="54.407760" lon="20.916950"><ele>32.5</ele><time>2026-08-04T11:32:13Z</time></trkpt>
			<trkpt lat="54.407770" lon="20.917350"><ele>31.9</ele><time>2026-08-04T11:32:14Z</time></trkpt>
			<trkpt lat="54.407740" lon="20.917710"><ele>31.4</ele><time>2026-08-04T11:32:15Z</time></trkpt>
			<trkpt lat="54.407140" lon="20.922770"><ele>37.8</ele><time>2026-08-04T11:32:16Z</time></trkpt>
			<trkpt lat="54.406780" lon="20.925640"><ele>41.6</ele><time>2026-08-04T11:32:17Z</time></trkpt>
			<trkpt lat="54.406380" lon="20.928930"><ele>43.1</ele><time>2026-08-04T11:32:18Z</time></trkpt>
			<trkpt lat="54.406040" lon="20.931660"><ele>42.7</ele><time>2026-08-04T11:32:19Z</time></trkpt>
			<trkpt lat="54.405950" lon="20.932390"><ele>42.5</ele><time>2026-08-04T11:32:20Z</time></trkpt>
			<trkpt lat="54.406000" lon="20.933030"><ele>42.4</ele><time>2026-08-04T11:32:21Z</time></trkpt>
			<trkpt lat="54.406170" lon="20.933540"><ele>42.3</ele><time>2026-08-04T11:32:22Z</time></trkpt>
			<trkpt lat="54.406180" lon="20.933570"><ele>42.2</ele><time>2026-08-04T11:32:23Z</time></trkpt>
			<trkpt lat="54.406420" lon="20.933930"><ele>42.1</ele><time>2026-08-04T11:32:24Z</time></trkpt>
			<trkpt lat="54.406740" lon="20.934100"><ele>42.0</ele><time>2026-08-04T11:32:25Z</time></trkpt>
			<trkpt lat="54.407990" lon="20.934640"><ele>41.3</ele><time>2026-08-04T11:32:26Z</time></trkpt>
			<trkpt lat="54.412070" lon="20.936710"><ele>39.2</ele><time>2026-08-04T11:32:27Z</time></trkpt>
			<trkpt lat="54.413710" lon="20.937900"><ele>38.4</ele><time>2026-08-04T11:32:28Z</time></trkpt>
			<trkpt lat="54.416370" lon="20.939730"><ele>38.9</ele><time>2026-08-04T11:32:29Z</time></trkpt>
			<trkpt lat="54.416370" lon="20.939730"><ele>38.9</ele><time>2026-08-04T11:32:30Z</time></trkpt>
			<trkpt lat="54.418410" lon="20.941180"><ele>37.0</ele><time>2026-08-04T11:32:31Z</time></trkpt>
			<trkpt lat="54.418870" lon="20.941500"><ele>36.7</ele><time>2026-08-04T11:32:32Z</time></trkpt>
			<trkpt lat="54.420840" lon="20.942950"><ele>36.9</ele><time>2026-08-04T11:32:33Z</time></trkpt>
			<trkpt lat="54.421440" lon="20.943410"><ele>36.7</ele><time>2026-08-04T11:32:34Z</time></trkpt>
			<trkpt lat="54.421720" lon="20.943770"><ele>36.5</ele><time>2026-08-04T11:32:35Z</time></trkpt>
			<trkpt lat="54.421900" lon="20.944210"><ele>36.3</ele><time>2026-08-04T11:32:36Z</time></trkpt>
			<trkpt lat="54.422220" lon="20.945140"><ele>35.8</ele><time>2026-08-04T11:32:37Z</time></trkpt>
			<trkpt lat="54.423060" lon="20.947530"><ele>36.2</ele><time>2026-08-04T11:32:38Z</time></trkpt>
			<trkpt lat="54.424110" lon="20.950310"><ele>36.9</ele><time>2026-08-04T11:32:39Z</time></trkpt>
			<trkpt lat="54.424880" lon="20.952550"><ele>34.0</ele><time>2026-08-04T11:32:40Z</time></trkpt>
			<trkpt lat="54.425480" lon="20.953730"><ele>32.9</ele><time>2026-08-04T11:32:41Z</time></trkpt>
			<trkpt lat="54.426350" lon="20.955350"><ele>32.5</ele><time>2026-08-04T11:32:42Z</time></trkpt>
			<trkpt lat="54.426930" lon="20.956510"><ele>34.1</ele><time>2026-08-04T11:32:43Z</time></trkpt>
			<trkpt lat="54.427450" lon="20.957460"><ele>35.4</ele><time>2026-08-04T11:32:44Z</time></trkpt>
			<trkpt lat="54.428700" lon="20.958890"><ele>37.4</ele><time>2026-08-04T11:32:45Z</time></trkpt>
			<trkpt lat="54.431690" lon="20.962250"><ele>28.2</ele><time>2026-08-04T11:32:46Z</time></trkpt>
			<trkpt lat="54.432100" lon="20.962780"><ele>26.8</ele><time>2026-08-04T11:32:47Z</time></trkpt>
			<trkpt lat="54.432430" lon="20.963440"><ele>26.3</ele><time>2026-08-04T11:32:48Z</time></trkpt>
			<trkpt lat="54.433090" lon="20.964950"><ele>25.3</ele><time>2026-08-04T11:32:49Z</time></trkpt>
			<trkpt lat="54.433530" lon="20.966070"><ele>25.4</ele><time>2026-08-04T11:32:50Z</time></trkpt>
			<trkpt lat="54.433790" lon="20.966960"><ele>25.6</ele><time>2026-08-04T11:32:51Z</time></trkpt>
			<trkpt lat="54.434140" lon="20.968650"><ele>26.7</ele><time>2026-08-04T11:32:52Z</time></trkpt>
			<trkpt lat="54.434390" lon="20.969490"><ele>27.9</ele><time>2026-08-04T11:32:53Z</time></trkpt>
			<trkpt lat="54.435070" lon="20.971420"><ele>30.4</ele><time>2026-08-04T11:32:54Z</time></trkpt>
			<trkpt lat="54.435480" lon="20.972710"><ele>31.6</ele><time>2026-08-04T11:32:55Z</time></trkpt>
			<trkpt lat="54.436620" lon="20.975920"><ele>30.5</ele><time>2026-08-04T11:32:56Z</time></trkpt>
			<trkpt lat="54.438320" lon="20.980740"><ele>31.4</ele><time>2026-08-04T11:32:57Z</time></trkpt>
			<trkpt lat="54.438510" lon="20.981340"><ele>31.5</ele><time>2026-08-04T11:32:58Z</time></trkpt>
			<trkpt lat="54.438650" lon="20.982230"><ele>31.9</ele><time>2026-08-04T11:32:59Z</time></trkpt>
			<trkpt lat="54.438860" lon="20.983310"><ele>32.4</ele><time>2026-08-04T11:33:00Z</time></trkpt>
			<trkpt lat="54.439390" lon="20.985950"><ele>32.0</ele><time>2026-08-04T11:33:01Z</time></trkpt>
			<trkpt lat="54.439490" lon="20.986490"><ele>31.7</ele><time>2026-08-04T11:33:02Z</time></trkpt>
			<trkpt lat="54.439520" lon="20.986650"><ele>31.5</ele><time>2026-08-04T11:33:03Z</time></trkpt>
			<trkpt lat="54.439680" lon="20.987470"><ele>31.1</ele><time>2026-08-04T11:33:04Z</time></trkpt>
			<trkpt lat="54.439900" lon="20.988570"><ele>31.4</ele><time>2026-08-04T11:33:05Z</time></trkpt>
			<trkpt lat="54.439990" lon="20.989030"><ele>31.5</ele><time>2026-08-04T11:33:06Z</time></trkpt>
			<trkpt lat="54.440320" lon="20.990720"><ele>31.8</ele><time>2026-08-04T11:33:07Z</time></trkpt>
			<trkpt lat="54.440920" lon="20.993780"><ele>31.8</ele><time>2026-08-04T11:33:08Z</time></trkpt>
			<trkpt lat="54.441300" lon="20.995710"><ele>31.3</ele><time>2026-08-04T11:33:09Z</time></trkpt>
			<trkpt lat="54.441630" lon="20.997330"><ele>31.1</ele><time>2026-08-04T11:33:10Z</time></trkpt>
			<trkpt lat="54.441630" lon="20.997850"><ele>31.1</ele><time>2026-08-04T11:33:11Z</time></trkpt>
			<trkpt lat="54.441600" lon="20.998570"><ele>31.1</ele><time>2026-08-04T11:33:12Z</time></trkpt>
			<trkpt lat="54.441600" lon="20.998990"><ele>31.1</ele><time>2026-08-04T11:33:13Z</time></trkpt>
			<trkpt lat="54.441620" lon="20.999220"><ele>31.1</ele><time>2026-08-04T11:33:14Z</time></trkpt>
			<trkpt lat="54.441760" lon="20.999380"><ele>31.2</ele><time>2026-08-04T11:33:15Z</time></trkpt>
			<trkpt lat="54.441990" lon="20.999440"><ele>31.5</ele><time>2026-08-04T11:33:16Z</time></trkpt>
			<trkpt lat="54.442120" lon="20.999660"><ele>31.7</ele><time>2026-08-04T11:33:17Z</time></trkpt>
			<trkpt lat="54.442390" lon="21.001050"><ele>32.6</ele><time>2026-08-04T11:33:18Z</time></trkpt>
			<trkpt lat="54.442740" lon="21.002760"><ele>31.3</ele><time>2026-08-04T11:33:19Z</time></trkpt>
			<trkpt lat="54.443050" lon="21.004300"><ele>28.8</ele><time>2026-08-04T11:33:20Z</time></trkpt>
			<trkpt lat="54.443390" lon="21.005890"><ele>27.7</ele><time>2026-08-04T11:33:21Z</time></trkpt>
			<trkpt lat="54.443420" lon="21.006040"><ele>27.7</ele><time>2026-08-04T11:33:22Z</time></trkpt>
			<trkpt lat="54.443950" lon="21.007900"><ele>27.2</ele><time>2026-08-04T11:33:23Z</time></trkpt>
			<trkpt lat="54.444400" lon="21.009340"><ele>27.8</ele><time>2026-08-04T11:33:24Z</time></trkpt>
			<trkpt lat="54.444710" lon="21.010120"><ele>28.2</ele><time>2026-08-04T11:33:25Z</time></trkpt>
			<trkpt lat="54.444940" lon="21.010930"><ele>28.3</ele><time>2026-08-04T11:33:26Z</time></trkpt>
			<trkpt lat="54.445090" lon="21.011530"><ele>28.4</ele><time>2026-08-04T11:33:27Z</time></trkpt>
			<trkpt lat="54.445180" lon="21.011950"><ele>28.5</ele><time>2026-08-04T11:33:28Z</time></trkpt>
			<trkpt lat="54.445460" lon="21.013390"><ele>28.5</ele><time>2026-08-04T11:33:29Z</time></trkpt>
			<trkpt lat="54.445630" lon="21.014250"><ele>28.2</ele><time>2026-08-04T11:33:30Z</time></trkpt>
			<trkpt lat="54.446040" lon="21.016320"><ele>27.3</ele><time>2026-08-04T11:33:31Z</time></trkpt>
			<trkpt lat="54.446010" lon="21.016470"><ele>27.2</ele><time>2026-08-04T11:33:32Z</time></trkpt>
			<trkpt lat="54.446060" lon="21.016910"><ele>26.9</ele><time>2026-08-04T11:33:33Z</time></trkpt>
			<trkpt lat="54.446070" lon="21.017100"><ele>26.7</ele><time>2026-08-04T11:33:34Z</time></trkpt>
			<trkpt lat="54.446050" lon="21.017290"><ele>26.6</ele><time>2026-08-04T11:33:35Z</time></trkpt>
			<trkpt lat="54.445950" lon="21.017490"><ele>26.4</ele><time>2026-08-04T11:33:36Z</time></trkpt>
			<trkpt lat="54.445920" lon="21.017620"><ele>26.3</ele><time>2026-08-04T11:33:37Z</time></trkpt>
			<trkpt lat="54.446000" lon="21.018220"><ele>25.8</ele><time>2026-08-04T11:33:38Z</time></trkpt>
			<trkpt lat="54.446130" lon="21.019140"><ele>25.0</ele><time>2026-08-04T11:33:39Z</time></trkpt>
			<trkpt lat="54.446280" lon="21.020370"><ele>22.9</ele><time>2026-08-04T11:33:40Z</time></trkpt>
			<trkpt lat="54.446320" lon="21.020750"><ele>22.2</ele><time>2026-08-04T11:33:41Z</time></trkpt>
			<trkpt lat="54.446170" lon="21.021320"><ele>21.2</ele><time>2026-08-04T11:33:42Z</time></trkpt>
			<trkpt lat="54.446070" lon="21.021510"><ele>20.7</ele><time>2026-08-04T11:33:43Z</time></trkpt>
			<trkpt lat="54.445780" lon="21.021790"><ele>19.9</ele><time>2026-08-04T11:33:44Z</time></trkpt>
			<trkpt lat="54.445280" lon="21.022220"><ele>19.6</ele><time>2026-08-04T11:33:45Z</time></trkpt>
			<trkpt lat="54.444590" lon="21.022780"><ele>19.1</ele><time>2026-08-04T11:33:46Z</time></trkpt>
			<trkpt lat="54.444500" lon="21.022860"><ele>19.1</ele><time>2026-08-04T11:33:47Z</time></trkpt>
			<trkpt lat="54.444350" lon="21.023110"><ele>18.9</ele><time>2026-08-04T11:33:48Z</time></trkpt>
			<trkpt lat="54.444200" lon="21.023450"><ele>18.7</ele><time>2026-08-04T11:33:49Z</time></trkpt>
			<trkpt lat="54.444150" lon="21.023710"><ele>18.5</ele><time>2026-08-04T11:33:50Z</time></trkpt>
			<trkpt lat="54.444250" lon="21.024460"><ele>17.9</ele><time>2026-08-04T11:33:51Z</time></trkpt>
			<trkpt lat="54.444560" lon="21.027120"><ele>19.7</ele><time>2026-08-04T11:33:52Z</time></trkpt>
			<trkpt lat="54.444670" lon="21.027670"><ele>21.7</ele><time>2026-08-04T11:33:53Z</time></trkpt>
			<trkpt lat="54.444850" lon="21.028270"><ele>24.0</ele><time>2026-08-04T11:33:54Z</time></trkpt>
			<trkpt lat="54.445520" lon="21.030070"><ele>27.1</ele><time>2026-08-04T11:33:55Z</time></trkpt>
			<trkpt lat="54.449010" lon="21.039310"><ele>26.4</ele><time>2026-08-04T11:33:56Z</time></trkpt>
			<trkpt lat="54.456520" lon="21.055500"><ele>28.7</ele><time>2026-08-04T11:33:57Z</time></trkpt>
			<trkpt lat="54.456990" lon="21.056710"><ele>30.9</ele><time>2026-08-04T11:33:58Z</time></trkpt>
			<trkpt lat="54.457430" lon="21.058090"><ele>33.6</ele><time>2026-08-04T11:33:59Z</time></trkpt>
			<trkpt lat="54.457770" lon="21.059390"><ele>35.9</ele><time>2026-08-04T11:34:00Z</time></trkpt>
			<trkpt lat="54.458170" lon="21.061170"><ele>32.7</ele><time>2026-08-04T11:34:01Z</time></trkpt>
			<trkpt lat="54.460040" lon="21.070320"><ele>26.8</ele><time>2026-08-04T11:34:02Z</time></trkpt>
			<trkpt lat="54.460220" lon="21.072630"><ele>26.6</ele><time>2026-08-04T11:34:03Z</time></trkpt>
			<trkpt lat="54.460420" lon="21.076350"><ele>25.8</ele><time>2026-08-04T11:34:04Z</time></trkpt>
			<trkpt lat="54.460580" lon="21.077800"><ele>25.0</ele><time>2026-08-04T11:34:05Z</time></trkpt>
			<trkpt lat="54.460710" lon="21.078520"><ele>24.7</ele><time>2026-08-04T11:34:06Z</time></trkpt>
			<trkpt lat="54.461230" lon="21.080770"><ele>23.4</ele><time>2026-08-04T11:34:07Z</time></trkpt>
			<trkpt lat="54.463740" lon="21.088680"><ele>23.6</ele><time>2026-08-04T11:34:08Z</time></trkpt>
			<trkpt lat="54.463870" lon="21.089490"><ele>23.6</ele><time>2026-08-04T11:34:09Z</time></trkpt>
			<trkpt lat="54.464760" lon="21.097900"><ele>22.4</ele><time>2026-08-04T11:34:10Z</time></trkpt>
			<trkpt lat="54.464850" lon="21.099040"><ele>22.7</ele><time>2026-08-04T11:34:11Z</time></trkpt>
			<trkpt lat="54.465190" lon="21.106610"><ele>22.6</ele><time>2026-08-04T11:34:12Z</time></trkpt>
			<trkpt lat="54.465370" lon="21.109970"><ele>20.6</ele><time>2026-08-04T11:34:13Z</time></trkpt>
			<trkpt lat="54.465980" lon="21.123810"><ele>25.8</ele><time>2026-08-04T11:34:14Z</time></trkpt>
			<trkpt lat="54.466090" lon="21.125590"><ele>25.8</ele><time>2026-08-04T11:34:15Z</time></trkpt>
			<trkpt lat="54.467280" lon="21.136450"><ele>21.4</ele><time>2026-08-04T11:34:16Z</time></trkpt>
			<trkpt lat="54.467840" lon="21.141060"><ele>18.5</ele><time>2026-08-04T11:34:17Z</time></trkpt>
			<trkpt lat="54.468200" lon="21.142880"><ele>19.4</ele><time>2026-08-04T11:34:18Z</time></trkpt>
			<trkpt lat="54.474300" lon="21.170200"><ele>14.3</ele><time>2026-08-04T11:34:19Z</time></trkpt>
			<trkpt lat="54.474990" lon="21.173420"><ele>16.8</ele><time>2026-08-04T11:34:20Z</time></trkpt>
			<trkpt lat="54.476550" lon="21.180290"><ele>13.3</ele><time>2026-08-04T11:34:21Z</time></trkpt>
			<trkpt lat="54.478420" lon="21.188890"><ele>9.6</ele><time>2026-08-04T11:34:22Z</time></trkpt>
			<trkpt lat="54.478890" lon="21.190840"><ele>9.6</ele><time>2026-08-04T11:34:23Z</time></trkpt>
			<trkpt lat="54.479080" lon="21.191510"><ele>9.4</ele><time>2026-08-04T11:34:24Z</time></trkpt>
			<trkpt lat="54.479410" lon="21.192480"><ele>9.1</ele><time>2026-08-04T11:34:25Z</time></trkpt>
			<trkpt lat="54.479790" lon="21.193260"><ele>9.1</ele><time>2026-08-04T11:34:26Z</time></trkpt>
			<trkpt lat="54.480390" lon="21.193930"><ele>9.7</ele><time>2026-08-04T11:34:27Z</time></trkpt>
			<trkpt lat="54.480830" lon="21.194320"><ele>10.0</ele><time>2026-08-04T11:34:28Z</time></trkpt>
			<trkpt lat="54.481390" lon="21.194740"><ele>10.1</ele><time>2026-08-04T11:34:29Z</time></trkpt>
			<trkpt lat="54.482120" lon="21.195190"><ele>9.6</ele><time>2026-08-04T11:34:30Z</time></trkpt>
			<trkpt lat="54.482570" lon="21.195310"><ele>9.3</ele><time>2026-08-04T11:34:31Z</time></trkpt>
			<trkpt lat="54.483100" lon="21.195290"><ele>8.9</ele><time>2026-08-04T11:34:32Z</time></trkpt>
			<trkpt lat="54.483530" lon="21.195150"><ele>8.4</ele><time>2026-08-04T11:34:33Z</time></trkpt>
			<trkpt lat="54.485380" lon="21.194330"><ele>7.4</ele><time>2026-08-04T11:34:34Z</time></trkpt>
			<trkpt lat="54.485580" lon="21.194330"><ele>7.4</ele><time>2026-08-04T11:34:35Z</time></trkpt>
			<trkpt lat="54.485710" lon="21.194390"><ele>7.4</ele><time>2026-08-04T11:34:36Z</time></trkpt>
			<trkpt lat="54.486000" lon="21.194700"><ele>7.5</ele><time>2026-08-04T11:34:37Z</time></trkpt>
			<trkpt lat="54.487440" lon="21.196830"><ele>14.1</ele><time>2026-08-04T11:34:38Z</time></trkpt>
			<trkpt lat="54.487450" lon="21.196820"><ele>14.1</ele><time>2026-08-04T11:34:39Z</time></trkpt>
			<trkpt lat="54.488660" lon="21.198550"><ele>14.3</ele><time>2026-08-04T11:34:40Z</time></trkpt>
			<trkpt lat="54.488820" lon="21.198770"><ele>14.2</ele><time>2026-08-04T11:34:41Z</time></trkpt>
			<trkpt lat="54.489030" lon="21.198110"><ele>14.0</ele><time>2026-08-04T11:34:42Z</time></trkpt>
			<trkpt lat="54.489700" lon="21.196160"><ele>14.6</ele><time>2026-08-04T11:34:43Z</time></trkpt>
			<trkpt lat="54.490010" lon="21.195230"><ele>14.4</ele><time>2026-08-04T11:34:44Z</time></trkpt>
			<trkpt lat="54.490700" lon="21.193480"><ele>13.1</ele><time>2026-08-04T11:34:45Z</time></trkpt>
			<trkpt lat="54.491110" lon="21.192610"><ele>12.2</ele><time>2026-08-04T11:34:46Z</time></trkpt>
			<trkpt lat="54.491560" lon="21.191690"><ele>10.9</ele><time>2026-08-04T11:34:47Z</time></trkpt>
			<trkpt lat="54.491930" lon="21.192070"><ele>10.2</ele><time>2026-08-04T11:34:48Z</time></trkpt>
			<trkpt lat="54.492070" lon="21.192160"><ele>9.9</ele><time>2026-08-04T11:34:49Z</time></trkpt>
			<trkpt lat="54.492580" lon="21.192440"><ele>9.0</ele><time>2026-08-04T11:34:50Z</time></trkpt>
			<trkpt lat="54.492720" lon="21.192570"><ele>8.8</ele><time>2026-08-04T11:34:51Z</time></trkpt>
			<trkpt lat="54.492800" lon="21.192660"><ele>8.6</ele><time>2026-08-04T11:34:52Z</time></trkpt>
			<trkpt lat="54.492890" lon="21.192750"><ele>8.5</ele><time>2026-08-04T11:34:53Z</time></trkpt>
			<trkpt lat="54.493180" lon="21.193250"><ele>7.8</ele><time>2026-08-04T11:34:54Z</time></trkpt>
			<trkpt lat="54.493540" lon="21.194010"><ele>6.9</ele><time>2026-08-04T11:34:55Z</time></trkpt>
			<trkpt lat="54.493630" lon="21.194240"><ele>6.7</ele><time>2026-08-04T11:34:56Z</time></trkpt>
			<trkpt lat="54.493700" lon="21.194470"><ele>6.9</ele><time>2026-08-04T11:34:57Z</time></trkpt>
			<trkpt lat="54.493740" lon="21.194850"><ele>7.1</ele><time>2026-08-04T11:34:58Z</time></trkpt>
			<trkpt lat="54.493760" lon="21.196700"><ele>8.3</ele><time>2026-08-04T11:34:59Z</time></trkpt>
			<trkpt lat="54.493800" lon="21.197200"><ele>8.6</ele><time>2026-08-04T11:35:00Z</time></trkpt>
			<trkpt lat="54.493830" lon="21.197530"><ele>8.7</ele><time>2026-08-04T11:35:01Z</time></trkpt>
			<trkpt lat="54.494280" lon="21.202310"><ele>9.7</ele><time>2026-08-04T11:35:02Z</time></trkpt>
			<trkpt lat="54.494280" lon="21.202840"><ele>9.8</ele><time>2026-08-04T11:35:03Z</time></trkpt>
			<trkpt lat="54.494170" lon="21.203450"><ele>10.0</ele><time>2026-08-04T11:35:04Z</time></trkpt>
			<trkpt lat="54.494160" lon="21.203650"><ele>10.2</ele><time>2026-08-04T11:35:05Z</time></trkpt>
			<trkpt lat="54.494230" lon="21.204110"><ele>10.8</ele><time>2026-08-04T11:35:06Z</time></trkpt>
			<trkpt lat="54.494540" lon="21.205690"><ele>12.8</ele><time>2026-08-04T11:35:07Z</time></trkpt>
			<trkpt lat="54.495940" lon="21.213280"><ele>18.0</ele><time>2026-08-04T11:35:08Z</time></trkpt>
			<trkpt lat="54.497290" lon="21.220680"><ele>17.2</ele><time>2026-08-04T11:35:09Z</time></trkpt>
			<trkpt lat="54.497550" lon="21.221740"><ele>17.2</ele><time>2026-08-04T11:35:10Z</time></trkpt>
			<trkpt lat="54.497840" lon="21.222870"><ele>16.6</ele><time>2026-08-04T11:35:11Z</time></trkpt>
			<trkpt lat="54.497970" lon="21.223330"><ele>16.4</ele><time>2026-08-04T11:35:12Z</time></trkpt>
			<trkpt lat="54.498170" lon="21.224030"><ele>16.0</ele><time>2026-08-04T11:35:13Z</time></trkpt>
			<trkpt lat="54.498570" lon="21.225550"><ele>14.0</ele><time>2026-08-04T11:35:14Z</time></trkpt>
			<trkpt lat="54.498760" lon="21.226690"><ele>12.5</ele><time>2026-08-04T11:35:15Z</time></trkpt>
			<trkpt lat="54.498760" lon="21.227090"><ele>11.9</ele><time>2026-08-04T11:35:16Z</time></trkpt>
			<trkpt lat="54.498760" lon="21.227880"><ele>10.6</ele><time>2026-08-04T11:35:17Z</time></trkpt>
			<trkpt lat="54.498750" lon="21.228420"><ele>9.7</ele><time>2026-08-04T11:35:18Z</time></trkpt>
			<trkpt lat="54.498670" lon="21.229590"><ele>7.7</ele><time>2026-08-04T11:35:19Z</time></trkpt>
			<trkpt lat="54.498350" lon="21.231150"><ele>9.3</ele><time>2026-08-04T11:35:20Z</time></trkpt>
			<trkpt lat="54.498120" lon="21.232510"><ele>11.9</ele><time>2026-08-04T11:35:21Z</time></trkpt>
			<trkpt lat="54.498120" lon="21.233060"><ele>12.8</ele><time>2026-08-04T11:35:22Z</time></trkpt>
			<trkpt lat="54.499920" lon="21.242350"><ele>13.9</ele><time>2026-08-04T11:35:23Z</time></trkpt>
			<trkpt lat="54.501130" lon="21.248460"><ele>12.9</ele><time>2026-08-04T11:35:24Z</time></trkpt>
			<trkpt lat="54.501570" lon="21.250230"><ele>13.2</ele><time>2026-08-04T11:35:25Z</time></trkpt>
			<trkpt lat="54.502880" lon="21.254040"><ele>13.7</ele><time>2026-08-04T11:35:26Z</time></trkpt>
			<trkpt lat="54.503490" lon="21.255800"><ele>15.2</ele><time>2026-08-04T11:35:27Z</time></trkpt>
			<trkpt lat="54.503650" lon="21.256220"><ele>14.8</ele><time>2026-08-04T11:35:28Z</time></trkpt>
			<trkpt lat="54.503770" lon="21.256510"><ele>14.2</ele><time>2026-08-04T11:35:29Z</time></trkpt>
			<trkpt lat="54.503870" lon="21.256740"><ele>13.6</ele><time>2026-08-04T11:35:30Z</time></trkpt>
			<trkpt lat="54.504080" lon="21.257080"><ele>12.8</ele><time>2026-08-04T11:35:31Z</time></trkpt>
			<trkpt lat="54.504170" lon="21.257320"><ele>12.3</ele><time>2026-08-04T11:35:32Z</time></trkpt>
			<trkpt lat="54.504240" lon="21.257540"><ele>11.8</ele><time>2026-08-04T11:35:33Z</time></trkpt>
			<trkpt lat="54.504250" lon="21.257610"><ele>11.7</ele><time>2026-08-04T11:35:34Z</time></trkpt>
			<trkpt lat="54.504420" lon="21.258330"><ele>10.3</ele><time>2026-08-04T11:35:35Z</time></trkpt>
			<trkpt lat="54.504450" lon="21.258440"><ele>10.1</ele><time>2026-08-04T11:35:36Z</time></trkpt>
			<trkpt lat="54.504480" lon="21.258780"><ele>10.2</ele><time>2026-08-04T11:35:37Z</time></trkpt>
			<trkpt lat="54.504470" lon="21.259160"><ele>10.9</ele><time>2026-08-04T11:35:38Z</time></trkpt>
			<trkpt lat="54.504350" lon="21.261580"><ele>15.1</ele><time>2026-08-04T11:35:39Z</time></trkpt>
			<trkpt lat="54.503800" lon="21.270470"><ele>21.2</ele><time>2026-08-04T11:35:40Z</time></trkpt>
			<trkpt lat="54.503100" lon="21.279840"><ele>23.9</ele><time>2026-08-04T11:35:41Z</time></trkpt>
			<trkpt lat="54.502820" lon="21.280870"><ele>24.6</ele><time>2026-08-04T11:35:42Z</time></trkpt>
			<trkpt lat="54.502490" lon="21.281830"><ele>25.6</ele><time>2026-08-04T11:35:43Z</time></trkpt>
			<trkpt lat="54.502300" lon="21.282630"><ele>26.4</ele><time>2026-08-04T11:35:44Z</time></trkpt>
			<trkpt lat="54.502230" lon="21.283900"><ele>26.5</ele><time>2026-08-04T11:35:45Z</time></trkpt>
			<trkpt lat="54.502270" lon="21.285010"><ele>26.2</ele><time>2026-08-04T11:35:46Z</time></trkpt>
			<trkpt lat="54.502410" lon="21.286080"><ele>25.9</ele><time>2026-08-04T11:35:47Z</time></trkpt>
			<trkpt lat="54.502670" lon="21.287750"><ele>27.1</ele><time>2026-08-04T11:35:48Z</time></trkpt>
			<trkpt lat="54.502850" lon="21.289290"><ele>28.2</ele><time>2026-08-04T11:35:49Z</time></trkpt>
			<trkpt lat="54.503090" lon="21.292220"><ele>28.1</ele><time>2026-08-04T11:35:50Z</time></trkpt>
			<trkpt lat="54.503170" lon="21.294010"><ele>29.6</ele><time>2026-08-04T11:35:51Z</time></trkpt>
			<trkpt lat="54.503360" lon="21.295540"><ele>30.7</ele><time>2026-08-04T11:35:52Z</time></trkpt>
			<trkpt lat="54.503660" lon="21.296390"><ele>30.5</ele><time>2026-08-04T11:35:53Z</time></trkpt>
			<trkpt lat="54.504380" lon="21.297410"><ele>30.3</ele><time>2026-08-04T11:35:54Z</time></trkpt>
			<trkpt lat="54.504560" lon="21.298160"><ele>29.3</ele><time>2026-08-04T11:35:55Z</time></trkpt>
			<trkpt lat="54.504900" lon="21.301000"><ele>24.9</ele><time>2026-08-04T11:35:56Z</time></trkpt>
			<trkpt lat="54.504940" lon="21.301240"><ele>24.7</ele><time>2026-08-04T11:35:57Z</time></trkpt>
			<trkpt lat="54.505100" lon="21.302220"><ele>23.9</ele><time>2026-08-04T11:35:58Z</time></trkpt>
			<trkpt lat="54.505950" lon="21.306440"><ele>24.5</ele><time>2026-08-04T11:35:59Z</time></trkpt>
			<trkpt lat="54.506640" lon="21.310130"><ele>23.3</ele><time>2026-08-04T11:36:00Z</time></trkpt>
			<trkpt lat="54.507880" lon="21.317140"><ele>23.8</ele><time>2026-08-04T11:36:01Z</time></trkpt>
			<trkpt lat="54.508740" lon="21.322000"><ele>22.1</ele><time>2026-08-04T11:36:02Z</time></trkpt>
			<trkpt lat="54.508770" lon="21.322410"><ele>21.4</ele><time>2026-08-04T11:36:03Z</time></trkpt>
			<trkpt lat="54.508740" lon="21.322840"><ele>20.7</ele><time>2026-08-04T11:36:04Z</time></trkpt>
			<trkpt lat="54.508490" lon="21.324080"><ele>18.6</ele><time>2026-08-04T11:36:05Z</time></trkpt>
			<trkpt lat="54.508200" lon="21.325100"><ele>18.3</ele><time>2026-08-04T11:36:06Z</time></trkpt>
			<trkpt lat="54.507940" lon="21.325800"><ele>18.7</ele><time>2026-08-04T11:36:07Z</time></trkpt>
			<trkpt lat="54.507770" lon="21.325900"><ele>18.8</ele><time>2026-08-04T11:36:08Z</time></trkpt>
			<trkpt lat="54.507390" lon="21.325940"><ele>19.1</ele><time>2026-08-04T11:36:09Z</time></trkpt>
			<trkpt lat="54.507240" lon="21.325990"><ele>19.3</ele><time>2026-08-04T11:36:10Z</time></trkpt>
			<trkpt lat="54.507180" lon="21.326060"><ele>19.3</ele><time>2026-08-04T11:36:11Z</time></trkpt>
			<trkpt lat="54.507130" lon="21.326350"><ele>19.5</ele><time>2026-08-04T11:36:12Z</time></trkpt>
			<trkpt lat="54.507150" lon="21.326570"><ele>19.6</ele><time>2026-08-04T11:36:13Z</time></trkpt>
			<trkpt lat="54.507220" lon="21.326880"><ele>19.9</ele><time>2026-08-04T11:36:14Z</time></trkpt>
			<trkpt lat="54.507290" lon="21.327240"><ele>20.1</ele><time>2026-08-04T11:36:15Z</time></trkpt>
			<trkpt lat="54.507440" lon="21.327780"><ele>20.5</ele><time>2026-08-04T11:36:16Z</time></trkpt>
			<trkpt lat="54.507560" lon="21.328020"><ele>20.7</ele><time>2026-08-04T11:36:17Z</time></trkpt>
			<trkpt lat="54.508000" lon="21.328460"><ele>21.3</ele><time>2026-08-04T11:36:18Z</time></trkpt>
			<trkpt lat="54.508130" lon="21.328680"><ele>21.5</ele><time>2026-08-04T11:36:19Z</time></trkpt>
			<trkpt lat="54.508160" lon="21.328940"><ele>22.0</ele><time>2026-08-04T11:36:20Z</time></trkpt>
			<trkpt lat="54.508240" lon="21.329790"><ele>23.6</ele><time>2026-08-04T11:36:21Z</time></trkpt>
			<trkpt lat="54.508360" lon="21.329680"><ele>24.1</ele><time>2026-08-04T11:36:22Z</time></trkpt>
			<trkpt lat="54.508540" lon="21.329650"><ele>24.7</ele><time>2026-08-04T11:36:23Z</time></trkpt>
			<trkpt lat="54.509120" lon="21.329610"><ele>26.6</ele><time>2026-08-04T11:36:24Z</time></trkpt>
			<trkpt lat="54.509610" lon="21.329580"><ele>27.1</ele><time>2026-08-04T11:36:25Z</time></trkpt>
			<trkpt lat="54.510650" lon="21.329550"><ele>25.8</ele><time>2026-08-04T11:36:26Z</time></trkpt>
			<trkpt lat="54.512990" lon="21.329490"><ele>22.3</ele><time>2026-08-04T11:36:27Z</time></trkpt>
			<trkpt lat="54.513280" lon="21.329480"><ele>22.4</ele><time>2026-08-04T11:36:28Z</time></trkpt>
			<trkpt lat="54.513800" lon="21.329480"><ele>22.6</ele><time>2026-08-04T11:36:29Z</time></trkpt>
			<trkpt lat="54.513990" lon="21.329400"><ele>22.7</ele><time>2026-08-04T11:36:30Z</time></trkpt>
			<trkpt lat="54.514140" lon="21.329290"><ele>22.8</ele><time>2026-08-04T11:36:31Z</time></trkpt>
			<trkpt lat="54.514270" lon="21.329080"><ele>22.9</ele><time>2026-08-04T11:36:32Z</time></trkpt>
			<trkpt lat="54.514450" lon="21.328660"><ele>23.0</ele><time>2026-08-04T11:36:33Z</time></trkpt>
			<trkpt lat="54.517730" lon="21.320820"><ele>23.6</ele><time>2026-08-04T11:36:34Z</time></trkpt>
			<trkpt lat="54.518480" lon="21.318980"><ele>29.9</ele><time>2026-08-04T11:36:35Z</time></trkpt>
			<trkpt lat="54.518630" lon="21.318670"><ele>31.0</ele><time>2026-08-04T11:36:36Z</time></trkpt>
			<trkpt lat="54.518760" lon="21.318480"><ele>31.9</ele><time>2026-08-04T11:36:37Z</time></trkpt>
			<trkpt lat="54.518920" lon="21.318310"><ele>32.4</ele><time>2026-08-04T11:36:38Z</time></trkpt>
			<trkpt lat="54.519170" lon="21.318130"><ele>32.9</ele><time>2026-08-04T11:36:39Z</time></trkpt>
			<trkpt lat="54.522720" lon="21.315770"><ele>32.3</ele><time>2026-08-04T11:36:40Z</time></trkpt>
			<trkpt lat="54.524160" lon="21.314820"><ele>30.0</ele><time>2026-08-04T11:36:41Z</time></trkpt>
			<trkpt lat="54.526320" lon="21.313380"><ele>24.7</ele><time>2026-08-04T11:36:42Z</time></trkpt>
			<trkpt lat="54.528670" lon="21.311920"><ele>23.2</ele><time>2026-08-04T11:36:43Z</time></trkpt>
			<trkpt lat="54.532890" lon="21.308990"><ele>25.0</ele><time>2026-08-04T11:36:44Z</time></trkpt>
			<trkpt lat="54.540030" lon="21.304540"><ele>26.4</ele><time>2026-08-04T11:36:45Z</time></trkpt>
			<trkpt lat="54.543420" lon="21.302460"><ele>28.1</ele><time>2026-08-04T11:36:46Z</time></trkpt>
			<trkpt lat="54.545100" lon="21.301560"><ele>29.9</ele><time>2026-08-04T11:36:47Z</time></trkpt>
			<trkpt lat="54.547370" lon="21.300380"><ele>31.4</ele><time>2026-08-04T11:36:48Z</time></trkpt>
			<trkpt lat="54.548300" lon="21.298960"><ele>31.4</ele><time>2026-08-04T11:36:49Z</time></trkpt>
			<trkpt lat="54.552440" lon="21.290870"><ele>30.8</ele><time>2026-08-04T11:36:50Z</time></trkpt>
			<trkpt lat="54.554930" lon="21.287400"><ele>31.5</ele><time>2026-08-04T11:36:51Z</time></trkpt>
			<trkpt lat="54.555580" lon="21.286710"><ele>29.8</ele><time>2026-08-04T11:36:52Z</time></trkpt>
			<trkpt lat="54.555580" lon="21.286710"><ele>29.8</ele><time>2026-08-04T11:36:53Z</time></trkpt>
			<trkpt lat="54.560000" lon="21.281940"><ele>20.5</ele><time>2026-08-04T11:36:54Z</time></trkpt>
			<trkpt lat="54.562060" lon="21.280370"><ele>21.1</ele><time>2026-08-04T11:36:55Z</time></trkpt>
			<trkpt lat="54.569770" lon="21.274830"><ele>19.7</ele><time>2026-08-04T11:36:56Z</time></trkpt>
			<trkpt lat="54.572710" lon="21.272620"><ele>17.5</ele><time>2026-08-04T11:36:57Z</time></trkpt>
			<trkpt lat="54.573110" lon="21.272350"><ele>17.3</ele><time>2026-08-04T11:36:58Z</time></trkpt>
			<trkpt lat="54.574780" lon="21.271580"><ele>12.5</ele><time>2026-08-04T11:36:59Z</time></trkpt>
			<trkpt lat="54.575050" lon="21.271500"><ele>12.0</ele><time>2026-08-04T11:37:00Z</time></trkpt>
			<trkpt lat="54.575170" lon="21.271510"><ele>12.4</ele><time>2026-08-04T11:37:01Z</time></trkpt>
			<trkpt lat="54.575290" lon="21.271580"><ele>12.9</ele><time>2026-08-04T11:37:02Z</time></trkpt>
			<trkpt lat="54.575390" lon="21.271680"><ele>13.3</ele><time>2026-08-04T11:37:03Z</time></trkpt>
			<trkpt lat="54.575500" lon="21.271840"><ele>13.9</ele><time>2026-08-04T11:37:04Z</time></trkpt>
			<trkpt lat="54.575860" lon="21.272440"><ele>15.7</ele><time>2026-08-04T11:37:05Z</time></trkpt>
			<trkpt lat="54.576030" lon="21.272680"><ele>16.5</ele><time>2026-08-04T11:37:06Z</time></trkpt>
			<trkpt lat="54.576200" lon="21.272850"><ele>17.3</ele><time>2026-08-04T11:37:07Z</time></trkpt>
			<trkpt lat="54.576320" lon="21.272930"><ele>17.8</ele><time>2026-08-04T11:37:08Z</time></trkpt>
			<trkpt lat="54.576520" lon="21.273020"><ele>18.5</ele><time>2026-08-04T11:37:09Z</time></trkpt>
			<trkpt lat="54.577250" lon="21.273210"><ele>19.5</ele><time>2026-08-04T11:37:10Z</time></trkpt>
			<trkpt lat="54.577690" lon="21.273320"><ele>20.1</ele><time>2026-08-04T11:37:11Z</time></trkpt>
			<trkpt lat="54.577960" lon="21.273350"><ele>20.5</ele><time>2026-08-04T11:37:12Z</time></trkpt>
			<trkpt lat="54.578120" lon="21.273350"><ele>20.7</ele><time>2026-08-04T11:37:13Z</time></trkpt>
			<trkpt lat="54.578290" lon="21.273330"><ele>20.9</ele><time>2026-08-04T11:37:14Z</time></trkpt>
			<trkpt lat="54.578400" lon="21.273290"><ele>21.0</ele><time>2026-08-04T11:37:15Z</time></trkpt>
			<trkpt lat="54.580330" lon="21.272770"><ele>21.0</ele><time>2026-08-04T11:37:16Z</time></trkpt>
			<trkpt lat="54.580780" lon="21.272560"><ele>21.1</ele><time>2026-08-04T11:37:17Z</time></trkpt>
			<trkpt lat="54.582800" lon="21.271480"><ele>21.2</ele><time>2026-08-04T11:37:18Z</time></trkpt>
			<trkpt lat="54.583630" lon="21.271020"><ele>20.9</ele><time>2026-08-04T11:37:19Z</time></trkpt>
			<trkpt lat="54.584490" lon="21.270570"><ele>20.9</ele><time>2026-08-04T11:37:20Z</time></trkpt>
			<trkpt lat="54.586590" lon="21.269410"><ele>19.5</ele><time>2026-08-04T11:37:21Z</time></trkpt>
			<trkpt lat="54.588970" lon="21.268130"><ele>20.0</ele><time>2026-08-04T11:37:22Z</time></trkpt>
			<trkpt lat="54.590060" lon="21.267550"><ele>20.4</ele><time>2026-08-04T11:37:23Z</time></trkpt>
			<trkpt lat="54.590340" lon="21.267390"><ele>20.5</ele><time>2026-08-04T11:37:24Z</time></trkpt>
			<trkpt lat="54.590510" lon="21.267290"><ele>20.5</ele><time>2026-08-04T11:37:25Z</time></trkpt>
			<trkpt lat="54.591190" lon="21.266960"><ele>19.9</ele><time>2026-08-04T11:37:26Z</time></trkpt>
			<trkpt lat="54.591980" lon="21.266380"><ele>19.1</ele><time>2026-08-04T11:37:27Z</time></trkpt>
			<trkpt lat="54.593370" lon="21.264900"><ele>18.4</ele><time>2026-08-04T11:37:28Z</time></trkpt>
			<trkpt lat="54.597960" lon="21.259230"><ele>21.5</ele><time>2026-08-04T11:37:29Z</time></trkpt>
			<trkpt lat="54.601230" lon="21.255190"><ele>23.9</ele><time>2026-08-04T11:37:30Z</time></trkpt>
			<trkpt lat="54.601940" lon="21.254340"><ele>24.7</ele><time>2026-08-04T11:37:31Z</time></trkpt>
			<trkpt lat="54.604290" lon="21.251530"><ele>24.9</ele><time>2026-08-04T11:37:32Z</time></trkpt>
			<trkpt lat="54.604810" lon="21.250920"><ele>23.8</ele><time>2026-08-04T11:37:33Z</time></trkpt>
			<trkpt lat="54.605260" lon="21.250360"><ele>22.7</ele><time>2026-08-04T11:37:34Z</time></trkpt>
			<trkpt lat="54.605610" lon="21.249830"><ele>22.2</ele><time>2026-08-04T11:37:35Z</time></trkpt>
			<trkpt lat="54.605730" lon="21.249610"><ele>22.1</ele><time>2026-08-04T11:37:36Z</time></trkpt>
			<trkpt lat="54.605900" lon="21.249260"><ele>22.1</ele><time>2026-08-04T11:37:37Z</time></trkpt>
			<trkpt lat="54.606230" lon="21.248460"><ele>21.9</ele><time>2026-08-04T11:37:38Z</time></trkpt>
			<trkpt lat="54.606440" lon="21.248000"><ele>21.8</ele><time>2026-08-04T11:37:39Z</time></trkpt>
			<trkpt lat="54.608420" lon="21.244390"><ele>20.1</ele><time>2026-08-04T11:37:40Z</time></trkpt>
			<trkpt lat="54.608740" lon="21.243810"><ele>19.1</ele><time>2026-08-04T11:37:41Z</time></trkpt>
			<trkpt lat="54.608870" lon="21.243520"><ele>18.6</ele><time>2026-08-04T11:37:42Z</time></trkpt>
			<trkpt lat="54.608990" lon="21.243210"><ele>18.1</ele><time>2026-08-04T11:37:43Z</time></trkpt>
			<trkpt lat="54.609200" lon="21.242510"><ele>17.7</ele><time>2026-08-04T11:37:44Z</time></trkpt>
			<trkpt lat="54.609280" lon="21.242140"><ele>17.6</ele><time>2026-08-04T11:37:45Z</time></trkpt>
			<trkpt lat="54.609350" lon="21.241710"><ele>17.5</ele><time>2026-08-04T11:37:46Z</time></trkpt>
			<trkpt lat="54.610320" lon="21.235470"><ele>15.4</ele><time>2026-08-04T11:37:47Z</time></trkpt>
			<trkpt lat="54.610410" lon="21.234910"><ele>14.7</ele><time>2026-08-04T11:37:48Z</time></trkpt>
			<trkpt lat="54.610660" lon="21.233310"><ele>13.0</ele><time>2026-08-04T11:37:49Z</time></trkpt>
			<trkpt lat="54.610780" lon="21.232740"><ele>12.4</ele><time>2026-08-04T11:37:50Z</time></trkpt>
			<trkpt lat="54.611330" lon="21.231420"><ele>10.8</ele><time>2026-08-04T11:37:51Z</time></trkpt>
			<trkpt lat="54.611530" lon="21.231050"><ele>10.9</ele><time>2026-08-04T11:37:52Z</time></trkpt>
			<trkpt lat="54.611790" lon="21.230780"><ele>11.2</ele><time>2026-08-04T11:37:53Z</time></trkpt>
			<trkpt lat="54.612160" lon="21.230590"><ele>11.6</ele><time>2026-08-04T11:37:54Z</time></trkpt>
			<trkpt lat="54.613200" lon="21.229940"><ele>11.9</ele><time>2026-08-04T11:37:55Z</time></trkpt>
			<trkpt lat="54.613290" lon="21.229850"><ele>11.6</ele><time>2026-08-04T11:37:56Z</time></trkpt>
			<trkpt lat="54.613470" lon="21.229690"><ele>11.0</ele><time>2026-08-04T11:37:57Z</time></trkpt>
			<trkpt lat="54.613600" lon="21.229530"><ele>10.6</ele><time>2026-08-04T11:37:58Z</time></trkpt>
			<trkpt lat="54.613760" lon="21.229190"><ele>9.8</ele><time>2026-08-04T11:37:59Z</time></trkpt>
			<trkpt lat="54.613850" lon="21.229020"><ele>9.5</ele><time>2026-08-04T11:38:00Z</time></trkpt>
			<trkpt lat="54.614270" lon="21.228720"><ele>8.2</ele><time>2026-08-04T11:38:01Z</time></trkpt>
			<trkpt lat="54.615490" lon="21.227850"><ele>5.6</ele><time>2026-08-04T11:38:02Z</time></trkpt>
			<trkpt lat="54.616060" lon="21.227450"><ele>4.6</ele><time>2026-08-04T11:38:03Z</time></trkpt>
			<trkpt lat="54.616230" lon="21.227310"><ele>4.3</ele><time>2026-08-04T11:38:04Z</time></trkpt>
			<trkpt lat="54.616230" lon="21.227310"><ele>4.3</ele><time>2026-08-04T11:38:05Z</time></trkpt>
			<trkpt lat="54.616430" lon="21.227160"><ele>4.1</ele><time>2026-08-04T11:38:06Z</time></trkpt>
			<trkpt lat="54.616790" lon="21.226960"><ele>3.7</ele><time>2026-08-04T11:38:07Z</time></trkpt>
			<trkpt lat="54.617220" lon="21.226950"><ele>3.3</ele><time>2026-08-04T11:38:08Z</time></trkpt>
			<trkpt lat="54.617620" lon="21.227040"><ele>2.9</ele><time>2026-08-04T11:38:09Z</time></trkpt>
			<trkpt lat="54.618030" lon="21.227240"><ele>2.6</ele><time>2026-08-04T11:38:10Z</time></trkpt>
			<trkpt lat="54.618290" lon="21.227370"><ele>2.8</ele><time>2026-08-04T11:38:11Z</time></trkpt>
			<trkpt lat="54.618440" lon="21.227490"><ele>2.9</ele><time>2026-08-04T11:38:12Z</time></trkpt>
			<trkpt lat="54.618780" lon="21.227850"><ele>3.1</ele><time>2026-08-04T11:38:13Z</time></trkpt>
			<trkpt lat="54.618780" lon="21.229630"><ele>3.7</ele><time>2026-08-04T11:38:14Z</time></trkpt>
			<trkpt lat="54.618780" lon="21.231530"><ele>4.3</ele><time>2026-08-04T11:38:15Z</time></trkpt>
			<trkpt lat="54.618780" lon="21.231640"><ele>4.3</ele><time>2026-08-04T11:38:16Z</time></trkpt>
			<trkpt lat="54.618770" lon="21.232760"><ele>4.5</ele><time>2026-08-04T11:38:17Z</time></trkpt>
			<trkpt lat="54.618760" lon="21.233930"><ele>4.3</ele><time>2026-08-04T11:38:18Z</time></trkpt>
			<trkpt lat="54.618820" lon="21.234170"><ele>4.3</ele><time>2026-08-04T11:38:19Z</time></trkpt>
			<trkpt lat="54.618940" lon="21.234320"><ele>4.2</ele><time>2026-08-04T11:38:20Z</time></trkpt>
			<trkpt lat="54.619260" lon="21.234450"><ele>4.2</ele><time>2026-08-04T11:38:21Z</time></trkpt>
			<trkpt lat="54.619540" lon="21.234420"><ele>4.1</ele><time>2026-08-04T11:38:22Z</time></trkpt>
			<trkpt lat="54.619700" lon="21.234400"><ele>3.9</ele><time>2026-08-04T11:38:23Z</time></trkpt>
			<trkpt lat="54.619910" lon="21.234360"><ele>3.4</ele><time>2026-08-04T11:38:24Z</time></trkpt>
			<trkpt lat="54.620230" lon="21.234410"><ele>2.6</ele><time>2026-08-04T11:38:25Z</time></trkpt>
			<trkpt lat="54.622090" lon="21.234030"><ele>1.4</ele><time>2026-08-04T11:38:26Z</time></trkpt>
			<trkpt lat="54.622490" lon="21.233980"><ele>2.4</ele><time>2026-08-04T11:38:27Z</time></trkpt>
			<trkpt lat="54.622640" lon="21.233980"><ele>2.8</ele><time>2026-08-04T11:38:28Z</time></trkpt>
			<trkpt lat="54.622790" lon="21.234070"><ele>3.2</ele><time>2026-08-04T11:38:29Z</time></trkpt>
			<trkpt lat="54.622940" lon="21.234290"><ele>3.7</ele><time>2026-08-04T11:38:30Z</time></trkpt>
			<trkpt lat="54.623200" lon="21.234960"><ele>4.4</ele><time>2026-08-04T11:38:31Z</time></trkpt>
			<trkpt lat="54.623270" lon="21.235050"><ele>4.4</ele><time>2026-08-04T11:38:32Z</time></trkpt>
			<trkpt lat="54.623370" lon="21.235050"><ele>4.4</ele><time>2026-08-04T11:38:33Z</time></trkpt>
			<trkpt lat="54.624280" lon="21.234900"><ele>4.7</ele><time>2026-08-04T11:38:34Z</time></trkpt>
			<trkpt lat="54.625790" lon="21.234660"><ele>2.9</ele><time>2026-08-04T11:38:35Z</time></trkpt>
			<trkpt lat="54.626100" lon="21.234620"><ele>2.3</ele><time>2026-08-04T11:38:36Z</time></trkpt>
			<trkpt lat="54.626210" lon="21.234610"><ele>2.1</ele><time>2026-08-04T11:38:37Z</time></trkpt>
			<trkpt lat="54.629070" lon="21.234150"><ele>3.3</ele><time>2026-08-04T11:38:38Z</time></trkpt>
			<trkpt lat="54.630850" lon="21.233880"><ele>4.9</ele><time>2026-08-04T11:38:39Z</time></trkpt>
			<trkpt lat="54.631400" lon="21.233770"><ele>5.9</ele><time>2026-08-04T11:38:40Z</time></trkpt>
			<trkpt lat="54.631730" lon="21.233720"><ele>6.4</ele><time>2026-08-04T11:38:41Z</time></trkpt>
			<trkpt lat="54.631940" lon="21.233670"><ele>6.8</ele><time>2026-08-04T11:38:42Z</time></trkpt>
			<trkpt lat="54.632280" lon="21.233570"><ele>7.5</ele><time>2026-08-04T11:38:43Z</time></trkpt>
			<trkpt lat="54.632730" lon="21.233330"><ele>8.6</ele><time>2026-08-04T11:38:44Z</time></trkpt>
			<trkpt lat="54.633170" lon="21.233030"><ele>9.7</ele><time>2026-08-04T11:38:45Z</time></trkpt>
			<trkpt lat="54.633530" lon="21.232690"><ele>10.6</ele><time>2026-08-04T11:38:46Z</time></trkpt>
			<trkpt lat="54.633580" lon="21.232650"><ele>10.7</ele><time>2026-08-04T11:38:47Z</time></trkpt>
			<trkpt lat="54.633820" lon="21.232430"><ele>11.0</ele><time>2026-08-04T11:38:48Z</time></trkpt>
			<trkpt lat="54.634300" lon="21.231770"><ele>11.4</ele><time>2026-08-04T11:38:49Z</time></trkpt>
			<trkpt lat="54.636220" lon="21.228980"><ele>12.4</ele><time>2026-08-04T11:38:50Z</time></trkpt>
			<trkpt lat="54.636280" lon="21.228890"><ele>12.4</ele><time>2026-08-04T11:38:51Z</time></trkpt>
			<trkpt lat="54.636420" lon="21.228720"><ele>12.4</ele><time>2026-08-04T11:38:52Z</time></trkpt>
			<trkpt lat="54.636460" lon="21.228660"><ele>12.4</ele><time>2026-08-04T11:38:53Z</time></trkpt>
			<trkpt lat="54.639680" lon="21.224040"><ele>16.1</ele><time>2026-08-04T11:38:54Z</time></trkpt>
			<trkpt lat="54.641110" lon="21.221960"><ele>14.5</ele><time>2026-08-04T11:38:55Z</time></trkpt>
			<trkpt lat="54.641680" lon="21.221190"><ele>14.1</ele><time>2026-08-04T11:38:56Z</time></trkpt>
			<trkpt lat="54.641960" lon="21.220930"><ele>14.0</ele><time>2026-08-04T11:38:57Z</time></trkpt>
			<trkpt lat="54.642260" lon="21.220730"><ele>14.2</ele><time>2026-08-04T11:38:58Z</time></trkpt>
			<trkpt lat="54.644110" lon="21.219860"><ele>16.1</ele><time>2026-08-04T11:38:59Z</time></trkpt>
			<trkpt lat="54.644310" lon="21.219740"><ele>16.2</ele><time>2026-08-04T11:39:00Z</time></trkpt>
			<trkpt lat="54.645100" lon="21.219240"><ele>16.5</ele><time>2026-08-04T11:39:01Z</time></trkpt>
			<trkpt lat="54.645850" lon="21.218770"><ele>16.6</ele><time>2026-08-04T11:39:02Z</time></trkpt>
			<trkpt lat="54.646270" lon="21.218500"><ele>16.6</ele><time>2026-08-04T11:39:03Z</time></trkpt>
			<trkpt lat="54.646730" lon="21.218200"><ele>16.5</ele><time>2026-08-04T11:39:04Z</time></trkpt>
			<trkpt lat="54.648570" lon="21.217000"><ele>15.5</ele><time>2026-08-04T11:39:05Z</time></trkpt>
			<trkpt lat="54.648950" lon="21.216750"><ele>15.2</ele><time>2026-08-04T11:39:06Z</time></trkpt>
			<trkpt lat="54.649430" lon="21.216440"><ele>15.4</ele><time>2026-08-04T11:39:07Z</time></trkpt>
			<trkpt lat="54.650710" lon="21.215580"><ele>15.8</ele><time>2026-08-04T11:39:08Z</time></trkpt>
			<trkpt lat="54.651160" lon="21.215300"><ele>15.9</ele><time>2026-08-04T11:39:09Z</time></trkpt>
			<trkpt lat="54.651680" lon="21.214990"><ele>15.9</ele><time>2026-08-04T11:39:10Z</time></trkpt>
			<trkpt lat="54.651560" lon="21.214390"><ele>16.0</ele><time>2026-08-04T11:39:11Z</time></trkpt>
			<trkpt lat="54.651410" lon="21.213700"><ele>15.9</ele><time>2026-08-04T11:39:12Z</time></trkpt>
			<trkpt lat="54.651330" lon="21.213380"><ele>15.7</ele><time>2026-08-04T11:39:13Z</time></trkpt>
			<trkpt lat="54.651240" lon="21.213130"><ele>15.5</ele><time>2026-08-04T11:39:14Z</time></trkpt>
			<trkpt lat="54.651210" lon="21.213050"><ele>15.5</ele><time>2026-08-04T11:39:15Z</time></trkpt>
			<trkpt lat="54.651150" lon="21.212960"><ele>15.4</ele><time>2026-08-04T11:39:16Z</time></trkpt>
			<trkpt lat="54.651080" lon="21.212880"><ele>15.3</ele><time>2026-08-04T11:39:17Z</time></trkpt>
			<trkpt lat="54.650990" lon="21.212810"><ele>15.2</ele><time>2026-08-04T11:39:18Z</time></trkpt>
			<trkpt lat="54.650890" lon="21.212770"><ele>15.1</ele><time>2026-08-04T11:39:19Z</time></trkpt>
			<trkpt lat="54.650710" lon="21.212740"><ele>14.9</ele><time>2026-08-04T11:39:20Z</time></trkpt>
			<trkpt lat="54.649550" lon="21.212670"><ele>14.6</ele><time>2026-08-04T11:39:21Z</time></trkpt>
			<trkpt lat="54.649460" lon="21.212610"><ele>14.7</ele><time>2026-08-04T11:39:22Z</time></trkpt>
			<trkpt lat="54.649400" lon="21.212530"><ele>14.7</ele><time>2026-08-04T11:39:23Z</time></trkpt>
			<trkpt lat="54.649340" lon="21.212410"><ele>14.8</ele><time>2026-08-04T11:39:24Z</time></trkpt>
			<trkpt lat="54.649270" lon="21.212230"><ele>14.9</ele><time>2026-08-04T11:39:25Z</time></trkpt>
			<trkpt lat="54.649270" lon="21.211310"><ele>15.3</ele><time>2026-08-04T11:39:26Z</time></trkpt>
			<trkpt lat="54.649240" lon="21.210840"><ele>15.5</ele><time>2026-08-04T11:39:27Z</time></trkpt>
			<trkpt lat="54.649260" lon="21.205710"><ele>17.0</ele><time>2026-08-04T11:39:28Z</time></trkpt>
			<trkpt lat="54.649360" lon="21.200660"><ele>18.8</ele><time>2026-08-04T11:39:29Z</time></trkpt>
			<trkpt lat="54.649410" lon="21.199050"><ele>22.3</ele><time>2026-08-04T11:39:30Z</time></trkpt>
			<trkpt lat="54.649440" lon="21.197460"><ele>25.4</ele><time>2026-08-04T11:39:31Z</time></trkpt>
			<trkpt lat="54.649580" lon="21.191060"><ele>32.5</ele><time>2026-08-04T11:39:32Z</time></trkpt>
			<trkpt lat="54.649700" lon="21.185570"><ele>33.3</ele><time>2026-08-04T11:39:33Z</time></trkpt>
			<trkpt lat="54.649880" lon="21.177340"><ele>28.0</ele><time>2026-08-04T11:39:34Z</time></trkpt>
			<trkpt lat="54.649890" lon="21.176880"><ele>28.1</ele><time>2026-08-04T11:39:35Z</time></trkpt>
			<trkpt lat="54.649890" lon="21.174820"><ele>27.6</ele><time>2026-08-04T11:39:36Z</time></trkpt>
			<trkpt lat="54.649930" lon="21.173770"><ele>27.1</ele><time>2026-08-04T11:39:37Z</time></trkpt>
			<trkpt lat="54.650040" lon="21.171420"><ele>27.2</ele><time>2026-08-04T11:39:38Z</time></trkpt>
			<trkpt lat="54.650090" lon="21.170580"><ele>27.5</ele><time>2026-08-04T11:39:39Z</time></trkpt>
			<trkpt lat="54.650180" lon="21.169440"><ele>28.0</ele><time>2026-08-04T11:39:40Z</time></trkpt>
			<trkpt lat="54.650400" lon="21.167210"><ele>29.4</ele><time>2026-08-04T11:39:41Z</time></trkpt>
			<trkpt lat="54.650670" lon="21.165100"><ele>30.8</ele><time>2026-08-04T11:39:42Z</time></trkpt>
			<trkpt lat="54.651020" lon="21.162770"><ele>32.4</ele><time>2026-08-04T11:39:43Z</time></trkpt>
			<trkpt lat="54.651370" lon="21.160870"><ele>33.7</ele><time>2026-08-04T11:39:44Z</time></trkpt>
			<trkpt lat="54.651620" lon="21.159590"><ele>34.4</ele><time>2026-08-04T11:39:45Z</time></trkpt>
			<trkpt lat="54.652040" lon="21.157870"><ele>35.3</ele><time>2026-08-04T11:39:46Z</time></trkpt>
			<trkpt lat="54.652310" lon="21.156830"><ele>35.6</ele><time>2026-08-04T11:39:47Z</time></trkpt>
			<trkpt lat="54.652650" lon="21.155580"><ele>35.9</ele><time>2026-08-04T11:39:48Z</time></trkpt>
			<trkpt lat="54.653040" lon="21.154200"><ele>35.4</ele><time>2026-08-04T11:39:49Z</time></trkpt>
			<trkpt lat="54.653380" lon="21.153130"><ele>34.5</ele><time>2026-08-04T11:39:50Z</time></trkpt>
			<trkpt lat="54.653380" lon="21.153130"><ele>34.5</ele><time>2026-08-04T11:39:51Z</time></trkpt>
			<trkpt lat="54.653850" lon="21.151750"><ele>33.6</ele><time>2026-08-04T11:39:52Z</time></trkpt>
			<trkpt lat="54.654390" lon="21.150270"><ele>32.9</ele><time>2026-08-04T11:39:53Z</time></trkpt>
			<trkpt lat="54.655580" lon="21.147320"><ele>31.7</ele><time>2026-08-04T11:39:54Z</time></trkpt>
			<trkpt lat="54.660170" lon="21.135750"><ele>21.2</ele><time>2026-08-04T11:39:55Z</time></trkpt>
			<trkpt lat="54.661960" lon="21.131310"><ele>18.2</ele><time>2026-08-04T11:39:56Z</time></trkpt>
			<trkpt lat="54.663360" lon="21.127770"><ele>20.2</ele><time>2026-08-04T11:39:57Z</time></trkpt>
			<trkpt lat="54.663730" lon="21.126840"><ele>20.9</ele><time>2026-08-04T11:39:58Z</time></trkpt>
			<trkpt lat="54.664110" lon="21.125930"><ele>20.4</ele><time>2026-08-04T11:39:59Z</time></trkpt>
			<trkpt lat="54.664480" lon="21.124980"><ele>19.3</ele><time>2026-08-04T11:40:00Z</time></trkpt>
			<trkpt lat="54.665120" lon="21.123390"><ele>16.1</ele><time>2026-08-04T11:40:01Z</time></trkpt>
			<trkpt lat="54.665540" lon="21.122330"><ele>12.7</ele><time>2026-08-04T11:40:02Z</time></trkpt>
			<trkpt lat="54.667110" lon="21.118310"><ele>10.1</ele><time>2026-08-04T11:40:03Z</time></trkpt>
			<trkpt lat="54.667950" lon="21.115990"><ele>14.5</ele><time>2026-08-04T11:40:04Z</time></trkpt>
			<trkpt lat="54.668310" lon="21.114860"><ele>12.4</ele><time>2026-08-04T11:40:05Z</time></trkpt>
			<trkpt lat="54.668710" lon="21.113500"><ele>10.0</ele><time>2026-08-04T11:40:06Z</time></trkpt>
			<trkpt lat="54.669080" lon="21.112220"><ele>5.5</ele><time>2026-08-04T11:40:07Z</time></trkpt>
			<trkpt lat="54.669650" lon="21.110150"><ele>-0.3</ele><time>2026-08-04T11:40:08Z</time></trkpt>
			<trkpt lat="54.670190" lon="21.107970"><ele>-0.1</ele><time>2026-08-04T11:40:09Z</time></trkpt>
			<trkpt lat="54.670490" lon="21.106570"><ele>-0.2</ele><time>2026-08-04T11:40:10Z</time></trkpt>
			<trkpt lat="54.670780" lon="21.105110"><ele>-0.2</ele><time>2026-08-04T11:40:11Z</time></trkpt>
			<trkpt lat="54.671090" lon="21.103410"><ele>-1.1</ele><time>2026-08-04T11:40:12Z</time></trkpt>
			<trkpt lat="54.671380" lon="21.101650"><ele>-2.0</ele><time>2026-08-04T11:40:13Z</time></trkpt>
			<trkpt lat="54.671620" lon="21.100020"><ele>-2.4</ele><time>2026-08-04T11:40:14Z</time></trkpt>
			<trkpt lat="54.671780" lon="21.098830"><ele>-2.6</ele><time>2026-08-04T11:40:15Z</time></trkpt>
			<trkpt lat="54.672070" lon="21.096440"><ele>-1.7</ele><time>2026-08-04T11:40:16Z</time></trkpt>
			<trkpt lat="54.672220" lon="21.095000"><ele>0.4</ele><time>2026-08-04T11:40:17Z</time></trkpt>
			<trkpt lat="54.672490" lon="21.092020"><ele>6.5</ele><time>2026-08-04T11:40:18Z</time></trkpt>
			<trkpt lat="54.672560" lon="21.090700"><ele>6.4</ele><time>2026-08-04T11:40:19Z</time></trkpt>
			<trkpt lat="54.672670" lon="21.087650"><ele>9.8</ele><time>2026-08-04T11:40:20Z</time></trkpt>
			<trkpt lat="54.672700" lon="21.086200"><ele>12.4</ele><time>2026-08-04T11:40:21Z</time></trkpt>
			<trkpt lat="54.672700" lon="21.084250"><ele>14.8</ele><time>2026-08-04T11:40:22Z</time></trkpt>
			<trkpt lat="54.672670" lon="21.082360"><ele>16.6</ele><time>2026-08-04T11:40:23Z</time></trkpt>
			<trkpt lat="54.672620" lon="21.080680"><ele>17.7</ele><time>2026-08-04T11:40:24Z</time></trkpt>
			<trkpt lat="54.672530" lon="21.078990"><ele>17.7</ele><time>2026-08-04T11:40:25Z</time></trkpt>
			<trkpt lat="54.672370" lon="21.075470"><ele>16.2</ele><time>2026-08-04T11:40:26Z</time></trkpt>
			<trkpt lat="54.672310" lon="21.074560"><ele>15.6</ele><time>2026-08-04T11:40:27Z</time></trkpt>
			<trkpt lat="54.672210" lon="21.072100"><ele>14.8</ele><time>2026-08-04T11:40:28Z</time></trkpt>
			<trkpt lat="54.672110" lon="21.069770"><ele>13.7</ele><time>2026-08-04T11:40:29Z</time></trkpt>
			<trkpt lat="54.672010" lon="21.067640"><ele>11.9</ele><time>2026-08-04T11:40:30Z</time></trkpt>
			<trkpt lat="54.671910" lon="21.065520"><ele>10.5</ele><time>2026-08-04T11:40:31Z</time></trkpt>
			<trkpt lat="54.671740" lon="21.062340"><ele>9.9</ele><time>2026-08-04T11:40:32Z</time></trkpt>
			<trkpt lat="54.671690" lon="21.061670"><ele>10.0</ele><time>2026-08-04T11:40:33Z</time></trkpt>
			<trkpt lat="54.671620" lon="21.060810"><ele>11.2</ele><time>2026-08-04T11:40:34Z</time></trkpt>
			<trkpt lat="54.671520" lon="21.059610"><ele>13.7</ele><time>2026-08-04T11:40:35Z</time></trkpt>
			<trkpt lat="54.671150" lon="21.056200"><ele>16.9</ele><time>2026-08-04T11:40:36Z</time></trkpt>
			<trkpt lat="54.670920" lon="21.054270"><ele>15.9</ele><time>2026-08-04T11:40:37Z</time></trkpt>
			<trkpt lat="54.670840" lon="21.053750"><ele>15.2</ele><time>2026-08-04T11:40:38Z</time></trkpt>
			<trkpt lat="54.670640" lon="21.052360"><ele>13.3</ele><time>2026-08-04T11:40:39Z</time></trkpt>
			<trkpt lat="54.670350" lon="21.050470"><ele>10.2</ele><time>2026-08-04T11:40:40Z</time></trkpt>
			<trkpt lat="54.669960" lon="21.048340"><ele>7.6</ele><time>2026-08-04T11:40:41Z</time></trkpt>
			<trkpt lat="54.669950" lon="21.048020"><ele>7.4</ele><time>2026-08-04T11:40:42Z</time></trkpt>
			<trkpt lat="54.669960" lon="21.047830"><ele>7.3</ele><time>2026-08-04T11:40:43Z</time></trkpt>
			<trkpt lat="54.670000" lon="21.047680"><ele>7.2</ele><time>2026-08-04T11:40:44Z</time></trkpt>
			<trkpt lat="54.670100" lon="21.047500"><ele>7.1</ele><time>2026-08-04T11:40:45Z</time></trkpt>
			<trkpt lat="54.670200" lon="21.047470"><ele>7.0</ele><time>2026-08-04T11:40:46Z</time></trkpt>
			<trkpt lat="54.670360" lon="21.047490"><ele>6.9</ele><time>2026-08-04T11:40:47Z</time></trkpt>
			<trkpt lat="54.671070" lon="21.048030"><ele>7.0</ele><time>2026-08-04T11:40:48Z</time></trkpt>
			<trkpt lat="54.675530" lon="21.051460"><ele>11.3</ele><time>2026-08-04T11:40:49Z</time></trkpt>
			<trkpt lat="54.676350" lon="21.052120"><ele>12.0</ele><time>2026-08-04T11:40:50Z</time></trkpt>
			<trkpt lat="54.681110" lon="21.056010"><ele>14.2</ele><time>2026-08-04T11:40:51Z</time></trkpt>
			<trkpt lat="54.681370" lon="21.056050"><ele>14.2</ele><time>2026-08-04T11:40:52Z</time></trkpt>
			<trkpt lat="54.681620" lon="21.055990"><ele>14.1</ele><time>2026-08-04T11:40:53Z</time></trkpt>
			<trkpt lat="54.682940" lon="21.055000"><ele>14.1</ele><time>2026-08-04T11:40:54Z</time></trkpt>
			<trkpt lat="54.683420" lon="21.054640"><ele>14.2</ele><time>2026-08-04T11:40:55Z</time></trkpt>
			<trkpt lat="54.688850" lon="21.051690"><ele>17.8</ele><time>2026-08-04T11:40:56Z</time></trkpt>
			<trkpt lat="54.689550" lon="21.051420"><ele>18.0</ele><time>2026-08-04T11:40:57Z</time></trkpt>
			<trkpt lat="54.690560" lon="21.051190"><ele>17.9</ele><time>2026-08-04T11:40:58Z</time></trkpt>
			<trkpt lat="54.690980" lon="21.051120"><ele>17.9</ele><time>2026-08-04T11:40:59Z</time></trkpt>
			<trkpt lat="54.691630" lon="21.051050"><ele>18.1</ele><time>2026-08-04T11:41:00Z</time></trkpt>
			<trkpt lat="54.691870" lon="21.050940"><ele>18.2</ele><time>2026-08-04T11:41:01Z</time></trkpt>
			<trkpt lat="54.692100" lon="21.050760"><ele>18.3</ele><time>2026-08-04T11:41:02Z</time></trkpt>
			<trkpt lat="54.692410" lon="21.050480"><ele>18.5</ele><time>2026-08-04T11:41:03Z</time></trkpt>
			<trkpt lat="54.692620" lon="21.050090"><ele>18.6</ele><time>2026-08-04T11:41:04Z</time></trkpt>
			<trkpt lat="54.692650" lon="21.049890"><ele>18.5</ele><time>2026-08-04T11:41:05Z</time></trkpt>
			<trkpt lat="54.692670" lon="21.049660"><ele>18.3</ele><time>2026-08-04T11:41:06Z</time></trkpt>
			<trkpt lat="54.692640" lon="21.049380"><ele>18.1</ele><time>2026-08-04T11:41:07Z</time></trkpt>
			<trkpt lat="54.692410" lon="21.048540"><ele>17.3</ele><time>2026-08-04T11:41:08Z</time></trkpt>
			<trkpt lat="54.692160" lon="21.047700"><ele>16.6</ele><time>2026-08-04T11:41:09Z</time></trkpt>
			<trkpt lat="54.692020" lon="21.047080"><ele>16.0</ele><time>2026-08-04T11:41:10Z</time></trkpt>
			<trkpt lat="54.691980" lon="21.046850"><ele>15.9</ele><time>2026-08-04T11:41:11Z</time></trkpt>
			<trkpt lat="54.691920" lon="21.046210"><ele>15.4</ele><time>2026-08-04T11:41:12Z</time></trkpt>
			<trkpt lat="54.691920" lon="21.045910"><ele>15.2</ele><time>2026-08-04T11:41:13Z</time></trkpt>
			<trkpt lat="54.691960" lon="21.045560"><ele>15.0</ele><time>2026-08-04T11:41:14Z</time></trkpt>
			<trkpt lat="54.692010" lon="21.045270"><ele>14.8</ele><time>2026-08-04T11:41:15Z</time></trkpt>
			<trkpt lat="54.692010" lon="21.044950"><ele>14.5</ele><time>2026-08-04T11:41:16Z</time></trkpt>
			<trkpt lat="54.691990" lon="21.043830"><ele>13.6</ele><time>2026-08-04T11:41:17Z</time></trkpt>
			<trkpt lat="54.691970" lon="21.043530"><ele>13.1</ele><time>2026-08-04T11:41:18Z</time></trkpt>
			<trkpt lat="54.691900" lon="21.041480"><ele>10.2</ele><time>2026-08-04T11:41:19Z</time></trkpt>
			<trkpt lat="54.691850" lon="21.039840"><ele>11.9</ele><time>2026-08-04T11:41:20Z</time></trkpt>
			<trkpt lat="54.691900" lon="21.037810"><ele>16.5</ele><time>2026-08-04T11:41:21Z</time></trkpt>
			<trkpt lat="54.691900" lon="21.037550"><ele>16.9</ele><time>2026-08-04T11:41:22Z</time></trkpt>
			<trkpt lat="54.691720" lon="21.035040"><ele>21.1</ele><time>2026-08-04T11:41:23Z</time></trkpt>
			<trkpt lat="54.691500" lon="21.033870"><ele>21.7</ele><time>2026-08-04T11:41:24Z</time></trkpt>
			<trkpt lat="54.691050" lon="21.031460"><ele>21.7</ele><time>2026-08-04T11:41:25Z</time></trkpt>
			<trkpt lat="54.690380" lon="21.028820"><ele>21.9</ele><time>2026-08-04T11:41:26Z</time></trkpt>
			<trkpt lat="54.690340" lon="21.026000"><ele>21.8</ele><time>2026-08-04T11:41:27Z</time></trkpt>
			<trkpt lat="54.690360" lon="21.024540"><ele>18.0</ele><time>2026-08-04T11:41:28Z</time></trkpt>
			<trkpt lat="54.690410" lon="21.023000"><ele>13.2</ele><time>2026-08-04T11:41:29Z</time></trkpt>
			<trkpt lat="54.690670" lon="21.018880"><ele>12.2</ele><time>2026-08-04T11:41:30Z</time></trkpt>
			<trkpt lat="54.690750" lon="21.017720"><ele>12.9</ele><time>2026-08-04T11:41:31Z</time></trkpt>
			<trkpt lat="54.690880" lon="21.016780"><ele>13.5</ele><time>2026-08-04T11:41:32Z</time></trkpt>
			<trkpt lat="54.691360" lon="21.013730"><ele>9.6</ele><time>2026-08-04T11:41:33Z</time></trkpt>
			<trkpt lat="54.691360" lon="21.013730"><ele>9.6</ele><time>2026-08-04T11:41:34Z</time></trkpt>
			<trkpt lat="54.691730" lon="21.011390"><ele>9.3</ele><time>2026-08-04T11:41:35Z</time></trkpt>
			<trkpt lat="54.691920" lon="21.009500"><ele>10.8</ele><time>2026-08-04T11:41:36Z</time></trkpt>
			<trkpt lat="54.692530" lon="20.998520"><ele>14.4</ele><time>2026-08-04T11:41:37Z</time></trkpt>
			<trkpt lat="54.692500" lon="20.997880"><ele>15.0</ele><time>2026-08-04T11:41:38Z</time></trkpt>
			<trkpt lat="54.692400" lon="20.996950"><ele>14.7</ele><time>2026-08-04T11:41:39Z</time></trkpt>
			<trkpt lat="54.692390" lon="20.996570"><ele>14.5</ele><time>2026-08-04T11:41:40Z</time></trkpt>
			<trkpt lat="54.692380" lon="20.996190"><ele>14.4</ele><time>2026-08-04T11:41:41Z</time></trkpt>
			<trkpt lat="54.692480" lon="20.995120"><ele>14.0</ele><time>2026-08-04T11:41:42Z</time></trkpt>
			<trkpt lat="54.692610" lon="20.994160"><ele>14.0</ele><time>2026-08-04T11:41:43Z</time></trkpt>
			<trkpt lat="54.692670" lon="20.993520"><ele>14.1</ele><time>2026-08-04T11:41:44Z</time></trkpt>
			<trkpt lat="54.692650" lon="20.993360"><ele>14.1</ele><time>2026-08-04T11:41:45Z</time></trkpt>
			<trkpt lat="54.692570" lon="20.993240"><ele>14.1</ele><time>2026-08-04T11:41:46Z</time></trkpt>
			<trkpt lat="54.692410" lon="20.993140"><ele>14.1</ele><time>2026-08-04T11:41:47Z</time></trkpt>
			<trkpt lat="54.691850" lon="20.992920"><ele>14.2</ele><time>2026-08-04T11:41:48Z</time></trkpt>
			<trkpt lat="54.692010" lon="20.991900"><ele>13.3</ele><time>2026-08-04T11:41:49Z</time></trkpt>
			<trkpt lat="54.692240" lon="20.990610"><ele>11.9</ele><time>2026-08-04T11:41:50Z</time></trkpt>
			<trkpt lat="54.692340" lon="20.989830"><ele>11.1</ele><time>2026-08-04T11:41:51Z</time></trkpt>
			<trkpt lat="54.692350" lon="20.989740"><ele>11.0</ele><time>2026-08-04T11:41:52Z</time></trkpt>
			<trkpt lat="54.692680" lon="20.987470"><ele>9.4</ele><time>2026-08-04T11:41:53Z</time></trkpt>
			<trkpt lat="54.692700" lon="20.987000"><ele>9.0</ele><time>2026-08-04T11:41:54Z</time></trkpt>
			<trkpt lat="54.692600" lon="20.985810"><ele>7.7</ele><time>2026-08-04T11:41:55Z</time></trkpt>
			<trkpt lat="54.692410" lon="20.984020"><ele>5.4</ele><time>2026-08-04T11:41:56Z</time></trkpt>
			<trkpt lat="54.692310" lon="20.982920"><ele>4.5</ele><time>2026-08-04T11:41:57Z</time></trkpt>
			<trkpt lat="54.692320" lon="20.982850"><ele>4.5</ele><time>2026-08-04T11:41:58Z</time></trkpt>
			<trkpt lat="54.692360" lon="20.982190"><ele>4.1</ele><time>2026-08-04T11:41:59Z</time></trkpt>
			<trkpt lat="54.692420" lon="20.981660"><ele>3.8</ele><time>2026-08-04T11:42:00Z</time></trkpt>
			<trkpt lat="54.692590" lon="20.981170"><ele>3.5</ele><time>2026-08-04T11:42:01Z</time></trkpt>
			<trkpt lat="54.694250" lon="20.976660"><ele>5.2</ele><time>2026-08-04T11:42:02Z</time></trkpt>
			<trkpt lat="54.694550" lon="20.975900"><ele>5.1</ele><time>2026-08-04T11:42:03Z</time></trkpt>
			<trkpt lat="54.695010" lon="20.975030"><ele>5.9</ele><time>2026-08-04T11:42:04Z</time></trkpt>
			<trkpt lat="54.695460" lon="20.973930"><ele>7.7</ele><time>2026-08-04T11:42:05Z</time></trkpt>
			<trkpt lat="54.695600" lon="20.973280"><ele>8.6</ele><time>2026-08-04T11:42:06Z</time></trkpt>
			<trkpt lat="54.695710" lon="20.972340"><ele>9.3</ele><time>2026-08-04T11:42:07Z</time></trkpt>
			<trkpt lat="54.695770" lon="20.972150"><ele>9.3</ele><time>2026-08-04T11:42:08Z</time></trkpt>
			<trkpt lat="54.695990" lon="20.972050"><ele>9.3</ele><time>2026-08-04T11:42:09Z</time></trkpt>
			<trkpt lat="54.696730" lon="20.971910"><ele>9.3</ele><time>2026-08-04T11:42:10Z</time></trkpt>
			<trkpt lat="54.697140" lon="20.971910"><ele>9.3</ele><time>2026-08-04T11:42:11Z</time></trkpt>
			<trkpt lat="54.697610" lon="20.972000"><ele>8.7</ele><time>2026-08-04T11:42:12Z</time></trkpt>
			<trkpt lat="54.698710" lon="20.972290"><ele>7.4</ele><time>2026-08-04T11:42:13Z</time></trkpt>
			<trkpt lat="54.700700" lon="20.972610"><ele>9.7</ele><time>2026-08-04T11:42:14Z</time></trkpt>
			<trkpt lat="54.701640" lon="20.972720"><ele>9.3</ele><time>2026-08-04T11:42:15Z</time></trkpt>
			<trkpt lat="54.701740" lon="20.972710"><ele>9.2</ele><time>2026-08-04T11:42:16Z</time></trkpt>
			<trkpt lat="54.701810" lon="20.972660"><ele>9.2</ele><time>2026-08-04T11:42:17Z</time></trkpt>
			<trkpt lat="54.701870" lon="20.972540"><ele>9.1</ele><time>2026-08-04T11:42:18Z</time></trkpt>
			<trkpt lat="54.701940" lon="20.971920"><ele>8.9</ele><time>2026-08-04T11:42:19Z</time></trkpt>
			<trkpt lat="54.702030" lon="20.970600"><ele>8.4</ele><time>2026-08-04T11:42:20Z</time></trkpt>
			<trkpt lat="54.702160" lon="20.967460"><ele>8.4</ele><time>2026-08-04T11:42:21Z</time></trkpt>
			<trkpt lat="54.702230" lon="20.966110"><ele>9.8</ele><time>2026-08-04T11:42:22Z</time></trkpt>
			<trkpt lat="54.702300" lon="20.964260"><ele>11.1</ele><time>2026-08-04T11:42:23Z</time></trkpt>
			<trkpt lat="54.702420" lon="20.963570"><ele>11.3</ele><time>2026-08-04T11:42:24Z</time></trkpt>
			<trkpt lat="54.702720" lon="20.962360"><ele>11.8</ele><time>2026-08-04T11:42:25Z</time></trkpt>
			<trkpt lat="54.703490" lon="20.959600"><ele>13.9</ele><time>2026-08-04T11:42:26Z</time></trkpt>
			<trkpt lat="54.703540" lon="20.959210"><ele>14.0</ele><time>2026-08-04T11:42:27Z</time></trkpt>
			<trkpt lat="54.703580" lon="20.958780"><ele>13.8</ele><time>2026-08-04T11:42:28Z</time></trkpt>
			<trkpt lat="54.703640" lon="20.957520"><ele>13.3</ele><time>2026-08-04T11:42:29Z</time></trkpt>
			<trkpt lat="54.703730" lon="20.956970"><ele>13.0</ele><time>2026-08-04T11:42:30Z</time></trkpt>
			<trkpt lat="54.703830" lon="20.956510"><ele>12.8</ele><time>2026-08-04T11:42:31Z</time></trkpt>
			<trkpt lat="54.704040" lon="20.955850"><ele>12.5</ele><time>2026-08-04T11:42:32Z</time></trkpt>
			<trkpt lat="54.705570" lon="20.951870"><ele>12.6</ele><time>2026-08-04T11:42:33Z</time></trkpt>
			<trkpt lat="54.706250" lon="20.950050"><ele>12.8</ele><time>2026-08-04T11:42:34Z</time></trkpt>
			<trkpt lat="54.709830" lon="20.950830"><ele>13.6</ele><time>2026-08-04T11:42:35Z</time></trkpt>
			<trkpt lat="54.711310" lon="20.951650"><ele>15.3</ele><time>2026-08-04T11:42:36Z</time></trkpt>
			<trkpt lat="54.713260" lon="20.952800"><ele>14.9</ele><time>2026-08-04T11:42:37Z</time></trkpt>
			<trkpt lat="54.714010" lon="20.953380"><ele>13.7</ele><time>2026-08-04T11:42:38Z</time></trkpt>
			<trkpt lat="54.714340" lon="20.953770"><ele>13.1</ele><time>2026-08-04T11:42:39Z</time></trkpt>
			<trkpt lat="54.718840" lon="20.959750"><ele>13.1</ele><time>2026-08-04T11:42:40Z</time></trkpt>
			<trkpt lat="54.720460" lon="20.962010"><ele>14.5</ele><time>2026-08-04T11:42:41Z</time></trkpt>
			<trkpt lat="54.725450" lon="20.968060"><ele>10.7</ele><time>2026-08-04T11:42:42Z</time></trkpt>
			<trkpt lat="54.728870" lon="20.971900"><ele>10.9</ele><time>2026-08-04T11:42:43Z</time></trkpt>
			<trkpt lat="54.729420" lon="20.972620"><ele>11.0</ele><time>2026-08-04T11:42:44Z</time></trkpt>
			<trkpt lat="54.730750" lon="20.975150"><ele>12.0</ele><time>2026-08-04T11:42:45Z</time></trkpt>
			<trkpt lat="54.731430" lon="20.976200"><ele>12.8</ele><time>2026-08-04T11:42:46Z</time></trkpt>
			<trkpt lat="54.731610" lon="20.976310"><ele>12.9</ele><time>2026-08-04T11:42:47Z</time></trkpt>
			<trkpt lat="54.732570" lon="20.976880"><ele>13.2</ele><time>2026-08-04T11:42:48Z</time></trkpt>
			<trkpt lat="54.732960" lon="20.977480"><ele>13.3</ele><time>2026-08-04T11:42:49Z</time></trkpt>
			<trkpt lat="54.733370" lon="20.978330"><ele>13.5</ele><time>2026-08-04T11:42:50Z</time></trkpt>
			<trkpt lat="54.734250" lon="20.979860"><ele>13.8</ele><time>2026-08-04T11:42:51Z</time></trkpt>
			<trkpt lat="54.734350" lon="20.980010"><ele>13.8</ele><time>2026-08-04T11:42:52Z</time></trkpt>
			<trkpt lat="54.734430" lon="20.979820"><ele>13.6</ele><time>2026-08-04T11:42:53Z</time></trkpt>
			<trkpt lat="54.735110" lon="20.978200"><ele>12.5</ele><time>2026-08-04T11:42:54Z</time></trkpt>
			<trkpt lat="54.737730" lon="20.971670"><ele>15.9</ele><time>2026-08-04T11:42:55Z</time></trkpt>
			<trkpt lat="54.738030" lon="20.971080"><ele>18.2</ele><time>2026-08-04T11:42:56Z</time></trkpt>
			<trkpt lat="54.741850" lon="20.964510"><ele>19.4</ele><time>2026-08-04T11:42:57Z</time></trkpt>
			<trkpt lat="54.747300" lon="20.955440"><ele>17.4</ele><time>2026-08-04T11:42:58Z</time></trkpt>
			<trkpt lat="54.748270" lon="20.953870"><ele>17.4</ele><time>2026-08-04T11:42:59Z</time></trkpt>
			<trkpt lat="54.749280" lon="20.952110"><ele>17.6</ele><time>2026-08-04T11:43:00Z</time></trkpt>
			<trkpt lat="54.749500" lon="20.951830"><ele>17.4</ele><time>2026-08-04T11:43:01Z</time></trkpt>
			<trkpt lat="54.749630" lon="20.951410"><ele>17.1</ele><time>2026-08-04T11:43:02Z</time></trkpt>
			<trkpt lat="54.750780" lon="20.943360"><ele>16.1</ele><time>2026-08-04T11:43:03Z</time></trkpt>
			<trkpt lat="54.750960" lon="20.942620"><ele>14.9</ele><time>2026-08-04T11:43:04Z</time></trkpt>
			<trkpt lat="54.752720" lon="20.936040"><ele>15.6</ele><time>2026-08-04T11:43:05Z</time></trkpt>
			<trkpt lat="54.757760" lon="20.917990"><ele>7.8</ele><time>2026-08-04T11:43:06Z</time></trkpt>
			<trkpt lat="54.758070" lon="20.917010"><ele>7.5</ele><time>2026-08-04T11:43:07Z</time></trkpt>
			<trkpt lat="54.767130" lon="20.902160"><ele>7.7</ele><time>2026-08-04T11:43:08Z</time></trkpt>
			<trkpt lat="54.767200" lon="20.901830"><ele>7.8</ele><time>2026-08-04T11:43:09Z</time></trkpt>
			<trkpt lat="54.767170" lon="20.901560"><ele>7.9</ele><time>2026-08-04T11:43:10Z</time></trkpt>
			<trkpt lat="54.766630" lon="20.899420"><ele>8.1</ele><time>2026-08-04T11:43:11Z</time></trkpt>
			<trkpt lat="54.766600" lon="20.898810"><ele>8.1</ele><time>2026-08-04T11:43:12Z</time></trkpt>
			<trkpt lat="54.766660" lon="20.898480"><ele>8.0</ele><time>2026-08-04T11:43:13Z</time></trkpt>
			<trkpt lat="54.766750" lon="20.898210"><ele>8.0</ele><time>2026-08-04T11:43:14Z</time></trkpt>
			<trkpt lat="54.766900" lon="20.897900"><ele>8.0</ele><time>2026-08-04T11:43:15Z</time></trkpt>
			<trkpt lat="54.767120" lon="20.897580"><ele>7.9</ele><time>2026-08-04T11:43:16Z</time></trkpt>
			<trkpt lat="54.780200" lon="20.887950"><ele>8.7</ele><time>2026-08-04T11:43:17Z</time></trkpt>
			<trkpt lat="54.780380" lon="20.887960"><ele>8.5</ele><time>2026-08-04T11:43:18Z</time></trkpt>
			<trkpt lat="54.781500" lon="20.888450"><ele>8.4</ele><time>2026-08-04T11:43:19Z</time></trkpt>
			<trkpt lat="54.782560" lon="20.888860"><ele>8.7</ele><time>2026-08-04T11:43:20Z</time></trkpt>
			<trkpt lat="54.782780" lon="20.888860"><ele>8.8</ele><time>2026-08-04T11:43:21Z</time></trkpt>
			<trkpt lat="54.782930" lon="20.888820"><ele>9.0</ele><time>2026-08-04T11:43:22Z</time></trkpt>
			<trkpt lat="54.785020" lon="20.887510"><ele>8.3</ele><time>2026-08-04T11:43:23Z</time></trkpt>
			<trkpt lat="54.785150" lon="20.887380"><ele>8.1</ele><time>2026-08-04T11:43:24Z</time></trkpt>
			<trkpt lat="54.785580" lon="20.886740"><ele>7.6</ele><time>2026-08-04T11:43:25Z</time></trkpt>
			<trkpt lat="54.786120" lon="20.886480"><ele>7.9</ele><time>2026-08-04T11:43:26Z</time></trkpt>
			<trkpt lat="54.786370" lon="20.886310"><ele>8.1</ele><time>2026-08-04T11:43:27Z</time></trkpt>
			<trkpt lat="54.786590" lon="20.886110"><ele>8.2</ele><time>2026-08-04T11:43:28Z</time></trkpt>
			<trkpt lat="54.786760" lon="20.885810"><ele>8.4</ele><time>2026-08-04T11:43:29Z</time></trkpt>
			<trkpt lat="54.787000" lon="20.885240"><ele>8.6</ele><time>2026-08-04T11:43:30Z</time></trkpt>
			<trkpt lat="54.787010" lon="20.885000"><ele>8.6</ele><time>2026-08-04T11:43:31Z</time></trkpt>
			<trkpt lat="54.786740" lon="20.883560"><ele>8.3</ele><time>2026-08-04T11:43:32Z</time></trkpt>
			<trkpt lat="54.785070" lon="20.877930"><ele>8.7</ele><time>2026-08-04T11:43:33Z</time></trkpt>
			<trkpt lat="54.782800" lon="20.870460"><ele>8.5</ele><time>2026-08-04T11:43:34Z</time></trkpt>
			<trkpt lat="54.781060" lon="20.865470"><ele>10.0</ele><time>2026-08-04T11:43:35Z</time></trkpt>
			<trkpt lat="54.780450" lon="20.863560"><ele>9.1</ele><time>2026-08-04T11:43:36Z</time></trkpt>
			<trkpt lat="54.779140" lon="20.856450"><ele>9.9</ele><time>2026-08-04T11:43:37Z</time></trkpt>
			<trkpt lat="54.778880" lon="20.854650"><ele>9.5</ele><time>2026-08-04T11:43:38Z</time></trkpt>
			<trkpt lat="54.776880" lon="20.837680"><ele>7.3</ele><time>2026-08-04T11:43:39Z</time></trkpt>
			<trkpt lat="54.776680" lon="20.836230"><ele>7.8</ele><time>2026-08-04T11:43:40Z</time></trkpt>
			<trkpt lat="54.776580" lon="20.835900"><ele>7.9</ele><time>2026-08-04T11:43:41Z</time></trkpt>
			<trkpt lat="54.776410" lon="20.835530"><ele>8.1</ele><time>2026-08-04T11:43:42Z</time></trkpt>
			<trkpt lat="54.775740" lon="20.834520"><ele>8.5</ele><time>2026-08-04T11:43:43Z</time></trkpt>
			<trkpt lat="54.775290" lon="20.833960"><ele>8.8</ele><time>2026-08-04T11:43:44Z</time></trkpt>
			<trkpt lat="54.774530" lon="20.833260"><ele>8.8</ele><time>2026-08-04T11:43:45Z</time></trkpt>
			<trkpt lat="54.774390" lon="20.833020"><ele>8.8</ele><time>2026-08-04T11:43:46Z</time></trkpt>
			<trkpt lat="54.774280" lon="20.832750"><ele>8.8</ele><time>2026-08-04T11:43:47Z</time></trkpt>
			<trkpt lat="54.773670" lon="20.826140"><ele>9.4</ele><time>2026-08-04T11:43:48Z</time></trkpt>
			<trkpt lat="54.773540" lon="20.825320"><ele>9.6</ele><time>2026-08-04T11:43:49Z</time></trkpt>
			<trkpt lat="54.772010" lon="20.820250"><ele>11.4</ele><time>2026-08-04T11:43:50Z</time></trkpt>
			<trkpt lat="54.771390" lon="20.818310"><ele>11.5</ele><time>2026-08-04T11:43:51Z</time></trkpt>
			<trkpt lat="54.770000" lon="20.813650"><ele>12.8</ele><time>2026-08-04T11:43:52Z</time></trkpt>
			<trkpt lat="54.769110" lon="20.808580"><ele>12.3</ele><time>2026-08-04T11:43:53Z</time></trkpt>
			<trkpt lat="54.769020" lon="20.808350"><ele>12.3</ele><time>2026-08-04T11:43:54Z</time></trkpt>
			<trkpt lat="54.768850" lon="20.808090"><ele>12.4</ele><time>2026-08-04T11:43:55Z</time></trkpt>
			<trkpt lat="54.762220" lon="20.800070"><ele>15.6</ele><time>2026-08-04T11:43:56Z</time></trkpt>
			<trkpt lat="54.761550" lon="20.799340"><ele>17.2</ele><time>2026-08-04T11:43:57Z</time></trkpt>
			<trkpt lat="54.761230" lon="20.799170"><ele>17.4</ele><time>2026-08-04T11:43:58Z</time></trkpt>
			<trkpt lat="54.760720" lon="20.799070"><ele>17.8</ele><time>2026-08-04T11:43:59Z</time></trkpt>
			<trkpt lat="54.759690" lon="20.799140"><ele>18.7</ele><time>2026-08-04T11:44:00Z</time></trkpt>
			<trkpt lat="54.756150" lon="20.799170"><ele>24.6</ele><time>2026-08-04T11:44:01Z</time></trkpt>
			<trkpt lat="54.755740" lon="20.799140"><ele>24.7</ele><time>2026-08-04T11:44:02Z</time></trkpt>
			<trkpt lat="54.755500" lon="20.799070"><ele>24.7</ele><time>2026-08-04T11:44:03Z</time></trkpt>
			<trkpt lat="54.755020" lon="20.798770"><ele>24.7</ele><time>2026-08-04T11:44:04Z</time></trkpt>
			<trkpt lat="54.754840" lon="20.798600"><ele>24.7</ele><time>2026-08-04T11:44:05Z</time></trkpt>
			<trkpt lat="54.754580" lon="20.798300"><ele>24.7</ele><time>2026-08-04T11:44:06Z</time></trkpt>
			<trkpt lat="54.754330" lon="20.797900"><ele>24.4</ele><time>2026-08-04T11:44:07Z</time></trkpt>
			<trkpt lat="54.751280" lon="20.791900"><ele>20.3</ele><time>2026-08-04T11:44:08Z</time></trkpt>
			<trkpt lat="54.749890" lon="20.789310"><ele>21.7</ele><time>2026-08-04T11:44:09Z</time></trkpt>
			<trkpt lat="54.749110" lon="20.787770"><ele>19.1</ele><time>2026-08-04T11:44:10Z</time></trkpt>
			<trkpt lat="54.748990" lon="20.787430"><ele>18.0</ele><time>2026-08-04T11:44:11Z</time></trkpt>
			<trkpt lat="54.748740" lon="20.781000"><ele>12.6</ele><time>2026-08-04T11:44:12Z</time></trkpt>
			<trkpt lat="54.748720" lon="20.779430"><ele>12.6</ele><time>2026-08-04T11:44:13Z</time></trkpt>
			<trkpt lat="54.748750" lon="20.774440"><ele>14.1</ele><time>2026-08-04T11:44:14Z</time></trkpt>
			<trkpt lat="54.748790" lon="20.773230"><ele>15.0</ele><time>2026-08-04T11:44:15Z</time></trkpt>
			<trkpt lat="54.749450" lon="20.760430"><ele>15.5</ele><time>2026-08-04T11:44:16Z</time></trkpt>
			<trkpt lat="54.749410" lon="20.759390"><ele>15.9</ele><time>2026-08-04T11:44:17Z</time></trkpt>
			<trkpt lat="54.749170" lon="20.758010"><ele>16.5</ele><time>2026-08-04T11:44:18Z</time></trkpt>
			<trkpt lat="54.748970" lon="20.757310"><ele>16.1</ele><time>2026-08-04T11:44:19Z</time></trkpt>
			<trkpt lat="54.746820" lon="20.750910"><ele>15.5</ele><time>2026-08-04T11:44:20Z</time></trkpt>
			<trkpt lat="54.746300" lon="20.749200"><ele>15.2</ele><time>2026-08-04T11:44:21Z</time></trkpt>
			<trkpt lat="54.746160" lon="20.748330"><ele>14.2</ele><time>2026-08-04T11:44:22Z</time></trkpt>
			<trkpt lat="54.746090" lon="20.747340"><ele>13.0</ele><time>2026-08-04T11:44:23Z</time></trkpt>
			<trkpt lat="54.745940" lon="20.741590"><ele>13.0</ele><time>2026-08-04T11:44:24Z</time></trkpt>
			<trkpt lat="54.745880" lon="20.741080"><ele>13.0</ele><time>2026-08-04T11:44:25Z</time></trkpt>
			<trkpt lat="54.739190" lon="20.706930"><ele>15.7</ele><time>2026-08-04T11:44:26Z</time></trkpt>
			<trkpt lat="54.734260" lon="20.678340"><ele>24.1</ele><time>2026-08-04T11:44:27Z</time></trkpt>
			<trkpt lat="54.733490" lon="20.672740"><ele>27.3</ele><time>2026-08-04T11:44:28Z</time></trkpt>
			<trkpt lat="54.733360" lon="20.672180"><ele>27.1</ele><time>2026-08-04T11:44:29Z</time></trkpt>
			<trkpt lat="54.732600" lon="20.670000"><ele>26.6</ele><time>2026-08-04T11:44:30Z</time></trkpt>
			<trkpt lat="54.730670" lon="20.664000"><ele>19.6</ele><time>2026-08-04T11:44:31Z</time></trkpt>
			<trkpt lat="54.730160" lon="20.662550"><ele>18.8</ele><time>2026-08-04T11:44:32Z</time></trkpt>
			<trkpt lat="54.729990" lon="20.662160"><ele>18.6</ele><time>2026-08-04T11:44:33Z</time></trkpt>
			<trkpt lat="54.729470" lon="20.661140"><ele>18.2</ele><time>2026-08-04T11:44:34Z</time></trkpt>
			<trkpt lat="54.728410" lon="20.659280"><ele>18.9</ele><time>2026-08-04T11:44:35Z</time></trkpt>
			<trkpt lat="54.724040" lon="20.651800"><ele>19.7</ele><time>2026-08-04T11:44:36Z</time></trkpt>
			<trkpt lat="54.723090" lon="20.649910"><ele>18.3</ele><time>2026-08-04T11:44:37Z</time></trkpt>
			<trkpt lat="54.722800" lon="20.649140"><ele>18.3</ele><time>2026-08-04T11:44:38Z</time></trkpt>
			<trkpt lat="54.722380" lon="20.647640"><ele>18.3</ele><time>2026-08-04T11:44:39Z</time></trkpt>
			<trkpt lat="54.720790" lon="20.641430"><ele>16.8</ele><time>2026-08-04T11:44:40Z</time></trkpt>
			<trkpt lat="54.720500" lon="20.640640"><ele>16.4</ele><time>2026-08-04T11:44:41Z</time></trkpt>
			<trkpt lat="54.719530" lon="20.639200"><ele>15.7</ele><time>2026-08-04T11:44:42Z</time></trkpt>
			<trkpt lat="54.719260" lon="20.638850"><ele>16.1</ele><time>2026-08-04T11:44:43Z</time></trkpt>
			<trkpt lat="54.717560" lon="20.636250"><ele>17.2</ele><time>2026-08-04T11:44:44Z</time></trkpt>
			<trkpt lat="54.715900" lon="20.633960"><ele>15.5</ele><time>2026-08-04T11:44:45Z</time></trkpt>
			<trkpt lat="54.714760" lon="20.632280"><ele>14.4</ele><time>2026-08-04T11:44:46Z</time></trkpt>
			<trkpt lat="54.714330" lon="20.631510"><ele>14.1</ele><time>2026-08-04T11:44:47Z</time></trkpt>
			<trkpt lat="54.713730" lon="20.630010"><ele>12.7</ele><time>2026-08-04T11:44:48Z</time></trkpt>
			<trkpt lat="54.713370" lon="20.628900"><ele>11.4</ele><time>2026-08-04T11:44:49Z</time></trkpt>
			<trkpt lat="54.712870" lon="20.626520"><ele>9.8</ele><time>2026-08-04T11:44:50Z</time></trkpt>
			<trkpt lat="54.712420" lon="20.624610"><ele>9.0</ele><time>2026-08-04T11:44:51Z</time></trkpt>
			<trkpt lat="54.711890" lon="20.622980"><ele>8.8</ele><time>2026-08-04T11:44:52Z</time></trkpt>
			<trkpt lat="54.711620" lon="20.622730"><ele>8.7</ele><time>2026-08-04T11:44:53Z</time></trkpt>
			<trkpt lat="54.711130" lon="20.622540"><ele>8.8</ele><time>2026-08-04T11:44:54Z</time></trkpt>
			<trkpt lat="54.710890" lon="20.622500"><ele>8.8</ele><time>2026-08-04T11:44:55Z</time></trkpt>
			<trkpt lat="54.710340" lon="20.622440"><ele>8.8</ele><time>2026-08-04T11:44:56Z</time></trkpt>
			<trkpt lat="54.708900" lon="20.622540"><ele>6.7</ele><time>2026-08-04T11:44:57Z</time></trkpt>
			<trkpt lat="54.708720" lon="20.622510"><ele>6.3</ele><time>2026-08-04T11:44:58Z</time></trkpt>
			<trkpt lat="54.708680" lon="20.621720"><ele>5.4</ele><time>2026-08-04T11:44:59Z</time></trkpt>
			<trkpt lat="54.708570" lon="20.621150"><ele>4.8</ele><time>2026-08-04T11:45:00Z</time></trkpt>
			<trkpt lat="54.708500" lon="20.620960"><ele>4.6</ele><time>2026-08-04T11:45:01Z</time></trkpt>
			<trkpt lat="54.708380" lon="20.620800"><ele>4.4</ele><time>2026-08-04T11:45:02Z</time></trkpt>
			<trkpt lat="54.707510" lon="20.620180"><ele>3.0</ele><time>2026-08-04T11:45:03Z</time></trkpt>
			<trkpt lat="54.707310" lon="20.619820"><ele>2.6</ele><time>2026-08-04T11:45:04Z</time></trkpt>
			<trkpt lat="54.707240" lon="20.619590"><ele>2.6</ele><time>2026-08-04T11:45:05Z</time></trkpt>
			<trkpt lat="54.706860" lon="20.618810"><ele>3.6</ele><time>2026-08-04T11:45:06Z</time></trkpt>
			<trkpt lat="54.706190" lon="20.613930"><ele>2.7</ele><time>2026-08-04T11:45:07Z</time></trkpt>
			<trkpt lat="54.705880" lon="20.612170"><ele>2.5</ele><time>2026-08-04T11:45:08Z</time></trkpt>
			<trkpt lat="54.705570" lon="20.610810"><ele>2.5</ele><time>2026-08-04T11:45:09Z</time></trkpt>
			<trkpt lat="54.704580" lon="20.607060"><ele>4.7</ele><time>2026-08-04T11:45:10Z</time></trkpt>
			<trkpt lat="54.704360" lon="20.605980"><ele>5.4</ele><time>2026-08-04T11:45:11Z</time></trkpt>
			<trkpt lat="54.704210" lon="20.604850"><ele>5.5</ele><time>2026-08-04T11:45:12Z</time></trkpt>
			<trkpt lat="54.704060" lon="20.603330"><ele>3.0</ele><time>2026-08-04T11:45:13Z</time></trkpt>
			<trkpt lat="54.703990" lon="20.601560"><ele>1.1</ele><time>2026-08-04T11:45:14Z</time></trkpt>
			<trkpt lat="54.703990" lon="20.600820"><ele>1.3</ele><time>2026-08-04T11:45:15Z</time></trkpt>
			<trkpt lat="54.704180" lon="20.598380"><ele>1.9</ele><time>2026-08-04T11:45:16Z</time></trkpt>
			<trkpt lat="54.704730" lon="20.593570"><ele>3.7</ele><time>2026-08-04T11:45:17Z</time></trkpt>
			<trkpt lat="54.704880" lon="20.592570"><ele>4.3</ele><time>2026-08-04T11:45:18Z</time></trkpt>
			<trkpt lat="54.705030" lon="20.591670"><ele>4.2</ele><time>2026-08-04T11:45:19Z</time></trkpt>
			<trkpt lat="54.705340" lon="20.590160"><ele>4.1</ele><time>2026-08-04T11:45:20Z</time></trkpt>
			<trkpt lat="54.705470" lon="20.589660"><ele>4.1</ele><time>2026-08-04T11:45:21Z</time></trkpt>
			<trkpt lat="54.706190" lon="20.587370"><ele>5.2</ele><time>2026-08-04T11:45:22Z</time></trkpt>
			<trkpt lat="54.706890" lon="20.584700"><ele>7.8</ele><time>2026-08-04T11:45:23Z</time></trkpt>
			<trkpt lat="54.707080" lon="20.583390"><ele>8.2</ele><time>2026-08-04T11:45:24Z</time></trkpt>
			<trkpt lat="54.707440" lon="20.580270"><ele>7.9</ele><time>2026-08-04T11:45:25Z</time></trkpt>
			<trkpt lat="54.707800" lon="20.577590"><ele>8.2</ele><time>2026-08-04T11:45:26Z</time></trkpt>
			<trkpt lat="54.708070" lon="20.575110"><ele>7.7</ele><time>2026-08-04T11:45:27Z</time></trkpt>
			<trkpt lat="54.708430" lon="20.572260"><ele>7.6</ele><time>2026-08-04T11:45:28Z</time></trkpt>
			<trkpt lat="54.708440" lon="20.572260"><ele>7.6</ele><time>2026-08-04T11:45:29Z</time></trkpt>
			<trkpt lat="54.708600" lon="20.570920"><ele>7.7</ele><time>2026-08-04T11:45:30Z</time></trkpt>
			<trkpt lat="54.708610" lon="20.570820"><ele>7.8</ele><time>2026-08-04T11:45:31Z</time></trkpt>
			<trkpt lat="54.708710" lon="20.569990"><ele>7.8</ele><time>2026-08-04T11:45:32Z</time></trkpt>
			<trkpt lat="54.708810" lon="20.569090"><ele>8.0</ele><time>2026-08-04T11:45:33Z</time></trkpt>
			<trkpt lat="54.708840" lon="20.568790"><ele>8.0</ele><time>2026-08-04T11:45:34Z</time></trkpt>
			<trkpt lat="54.708840" lon="20.568340"><ele>8.0</ele><time>2026-08-04T11:45:35Z</time></trkpt>
			<trkpt lat="54.708870" lon="20.567600"><ele>7.9</ele><time>2026-08-04T11:45:36Z</time></trkpt>
			<trkpt lat="54.708870" lon="20.567370"><ele>7.9</ele><time>2026-08-04T11:45:37Z</time></trkpt>
			<trkpt lat="54.708890" lon="20.566780"><ele>7.9</ele><time>2026-08-04T11:45:38Z</time></trkpt>
			<trkpt lat="54.708910" lon="20.566500"><ele>7.9</ele><time>2026-08-04T11:45:39Z</time></trkpt>
			<trkpt lat="54.708930" lon="20.564930"><ele>7.7</ele><time>2026-08-04T11:45:40Z</time></trkpt>
			<trkpt lat="54.708990" lon="20.563550"><ele>7.5</ele><time>2026-08-04T11:45:41Z</time></trkpt>
			<trkpt lat="54.708990" lon="20.563550"><ele>7.5</ele><time>2026-08-04T11:45:42Z</time></trkpt>
			<trkpt lat="54.709000" lon="20.563230"><ele>7.5</ele><time>2026-08-04T11:45:43Z</time></trkpt>
			<trkpt lat="54.709070" lon="20.561830"><ele>7.6</ele><time>2026-08-04T11:45:44Z</time></trkpt>
			<trkpt lat="54.709190" lon="20.559880"><ele>7.9</ele><time>2026-08-04T11:45:45Z</time></trkpt>
			<trkpt lat="54.709260" lon="20.558180"><ele>6.9</ele><time>2026-08-04T11:45:46Z</time></trkpt>
			<trkpt lat="54.709320" lon="20.557140"><ele>6.1</ele><time>2026-08-04T11:45:47Z</time></trkpt>
			<trkpt lat="54.709390" lon="20.556080"><ele>5.7</ele><time>2026-08-04T11:45:48Z</time></trkpt>
			<trkpt lat="54.709480" lon="20.555120"><ele>6.1</ele><time>2026-08-04T11:45:49Z</time></trkpt>
			<trkpt lat="54.709500" lon="20.554650"><ele>6.4</ele><time>2026-08-04T11:45:50Z</time></trkpt>
			<trkpt lat="54.709690" lon="20.551220"><ele>6.3</ele><time>2026-08-04T11:45:51Z</time></trkpt>
			<trkpt lat="54.709830" lon="20.547820"><ele>6.3</ele><time>2026-08-04T11:45:52Z</time></trkpt>
			<trkpt lat="54.709884" lon="20.545096"><ele>7.6</ele><time>2026-08-04T11:45:53Z</time></trkpt>
			<trkpt lat="54.709880" lon="20.545110"><ele>7.6</ele><time>2026-08-04T11:45:54Z</time></trkpt>
			<trkpt lat="54.709950" lon="20.545060"><ele>7.7</ele><time>2026-08-04T11:45:55Z</time></trkpt>
			<trkpt lat="54.710030" lon="20.545020"><ele>7.8</ele><time>2026-08-04T11:45:56Z</time></trkpt>
			<trkpt lat="54.710220" lon="20.545030"><ele>8.0</ele><time>2026-08-04T11:45:57Z</time></trkpt>
			<trkpt lat="54.710790" lon="20.545050"><ele>8.2</ele><time>2026-08-04T11:45:58Z</time></trkpt>
			<trkpt lat="54.710950" lon="20.545080"><ele>8.2</ele><time>2026-08-04T11:45:59Z</time></trkpt>
			<trkpt lat="54.710950" lon="20.545080"><ele>8.2</ele><time>2026-08-04T11:46:00Z</time></trkpt>
			<trkpt lat="54.710970" lon="20.545080"><ele>8.1</ele><time>2026-08-04T11:46:01Z</time></trkpt>
			<trkpt lat="54.711000" lon="20.544480"><ele>8.0</ele><time>2026-08-04T11:46:02Z</time></trkpt>
			<trkpt lat="54.711030" lon="20.544050"><ele>7.8</ele><time>2026-08-04T11:46:03Z</time></trkpt>
			<trkpt lat="54.711030" lon="20.544050"><ele>7.8</ele><time>2026-08-04T11:46:04Z</time></trkpt>
			<trkpt lat="54.711040" lon="20.543960"><ele>7.8</ele><time>2026-08-04T11:46:05Z</time></trkpt>
			<trkpt lat="54.711040" lon="20.543890"><ele>7.8</ele><time>2026-08-04T11:46:06Z</time></trkpt>
			<trkpt lat="54.711040" lon="20.543890"><ele>7.8</ele><time>2026-08-04T11:46:07Z</time></trkpt>
			<trkpt lat="54.711070" lon="20.542690"><ele>7.4</ele><time>2026-08-04T11:46:08Z</time></trkpt>
		</trkseg>
	</trk>
</gpx>